Darstellungsparameter: Aktuell verwendete Einstellungen:
Skalierung der Graphiken ... ?
xyx+y,   Skalierungsfaktor:      Skalierung: Modus: x, Faktor: 1
Darstellungszeitraum ... ?
Vom - - bis: - -   Zeitraum: 23.02.2008 - 02.03.2008
Min/Max/Avg-Anzeige ... ?
Zeige MMA aktuell
Zeige MMA Monat
Zeige MMA alles
Zeige --A aktuell
Zeige --A Monat
Zeige --A alles
Keine MMA-Anzeige
MMA:
Average (ber die Originaldaten)
MMA-Basis: 23.02.2008 - 02.03.2008
Quicknavigation für Darstellung... ?
Tage:      1T, 2T, 3T, 5T -1T -2T -3T -5T +1T +2T +3T +5T
Wochen: 1W, 2W, 3W -1W -2W -3W +1W +2W +3W
Monate: 1M, 3M, 6M -1M -3M -6M +1M +3M +6M
Jahre:    1J, 3J, 5J, 10J -1J -3J -5J -10J +1J +3J +5J +10J
Nutze für die Darstellung ... ?
Originaldaten oder Mittelwerte auf ...
Stundenbasis Tagesbasis Wochenbasis
Monatsbasis Jahresbasis      Datenbasis: Original-Daten
Darstellen als:
Statistik (Auto) Statistik J:M      Darstellung:
Zur Graphik,    zurück zur Übersicht aller Sensoren.
 
Tabellarische Datenbersicht: ?
 
Sensor: Nr:Datum:Temp:Abs-Feuchte:Windchill:Wind:
Aussen-T/F 1 23-02-2008 00:07:04 10.7 C 5.89 g/m*3 10.7 C 0 km/h
2 23-02-2008 00:19:04 10.6 C 5.86 g/m*3 10.6 C 0 km/h
3 23-02-2008 00:31:04 10.6 C 5.86 g/m*3 10.6 C 0 km/h
4 23-02-2008 00:43:04 10.5 C 5.92 g/m*3 10.5 C 0 km/h
5 23-02-2008 00:55:04 10.4 C 5.88 g/m*3 10.4 C 0 km/h
6 23-02-2008 01:07:04 10.2 C 5.9 g/m*3 10.2 C 0 km/h
7 23-02-2008 01:19:04 9.8 C 5.94 g/m*3 9.8 C 0 km/h
8 23-02-2008 01:31:04 9.5 C 5.92 g/m*3 9.5 C 0 km/h
9 23-02-2008 01:43:04 9.4 C 5.97 g/m*3 9.4 C 0 km/h
10 23-02-2008 01:55:04 9.6 C 6.05 g/m*3 9.6 C 0 km/h
11 23-02-2008 02:07:04 9.9 C 5.88 g/m*3 9.9 C 0 km/h
12 23-02-2008 02:19:04 10.3 C 5.65 g/m*3 10.3 C 0 km/h
13 23-02-2008 02:31:04 10.4 C 5.49 g/m*3 10.4 C 0 km/h
14 23-02-2008 02:43:04 10.1 C 5.39 g/m*3 10.1 C 0 km/h
15 23-02-2008 02:55:04 9.8 C 5.47 g/m*3 9.8 C 0 km/h
16 23-02-2008 03:07:04 9.4 C 5.52 g/m*3 9.4 C 0 km/h
17 23-02-2008 03:19:04 9.3 C 5.57 g/m*3 9.3 C 0 km/h
18 23-02-2008 03:31:04 9.1 C 5.59 g/m*3 9.1 C 0 km/h
19 23-02-2008 03:43:05 9 C 5.64 g/m*3 9 C 0 km/h
20 23-02-2008 03:55:05 8.6 C 5.67 g/m*3 8.6 C 0 km/h
21 23-02-2008 04:07:05 8.4 C 5.68 g/m*3 8.4 C 0 km/h
22 23-02-2008 04:19:03 8.3 C 5.73 g/m*3 8.3 C 0 km/h
23 23-02-2008 04:31:02 8.2 C 5.69 g/m*3 8.2 C 0 km/h
24 23-02-2008 04:43:02 8.1 C 5.74 g/m*3 8.1 C 0 km/h
25 23-02-2008 04:55:01 8.2 C 5.78 g/m*3 8.2 C 0 km/h
Sensor: Nr:Datum:Temp:Abs-Feuchte:Windchill:Wind:
Aussen-T/F 26 23-02-2008 05:07:02 8 C 5.7 g/m*3 8 C 0 km/h
27 23-02-2008 05:19:02 7.8 C 5.79 g/m*3 7.8 C 0 km/h
28 23-02-2008 05:31:02 7.5 C 5.76 g/m*3 7.5 C 0 km/h
29 23-02-2008 05:43:02 7.4 C 5.81 g/m*3 7.4 C 0 km/h
30 23-02-2008 05:55:02 7.3 C 5.85 g/m*3 7.3 C 0 km/h
31 23-02-2008 06:07:02 7.2 C 5.89 g/m*3 7.2 C 0 km/h
32 23-02-2008 06:19:01 7.1 C 5.85 g/m*3 7.1 C 0 km/h
33 23-02-2008 06:31:02 6.9 C 5.93 g/m*3 6.9 C 0 km/h
34 23-02-2008 06:43:02 6.9 C 6 g/m*3 6.9 C 0 km/h
35 23-02-2008 06:55:02 6.9 C 6 g/m*3 6.9 C 0 km/h
36 23-02-2008 07:07:01 6.9 C 6.08 g/m*3 6.9 C 0 km/h
37 23-02-2008 07:19:02 6.8 C 6.04 g/m*3 6.8 C 0 km/h
38 23-02-2008 07:31:01 6.9 C 6.08 g/m*3 6.9 C 0 km/h
39 23-02-2008 07:43:02 6.9 C 6.08 g/m*3 6.9 C 0 km/h
40 23-02-2008 07:55:02 6.9 C 6.08 g/m*3 6.9 C 0 km/h
41 23-02-2008 08:07:02 6.9 C 6.08 g/m*3 6.9 C 0 km/h
42 23-02-2008 08:19:02 6.8 C 6.04 g/m*3 6.8 C 0 km/h
43 23-02-2008 08:31:02 7 C 6.04 g/m*3 7 C 0 km/h
44 23-02-2008 08:43:02 7.2 C 6.12 g/m*3 7.2 C 0 km/h
45 23-02-2008 08:55:02 7.3 C 6.08 g/m*3 7.3 C 0 km/h
46 23-02-2008 09:07:02 7.4 C 6.04 g/m*3 7.4 C 0 km/h
47 23-02-2008 09:19:02 7.5 C 6.08 g/m*3 7.5 C 0 km/h
48 23-02-2008 09:31:02 7.7 C 6.16 g/m*3 7.7 C 0 km/h
49 23-02-2008 09:43:02 7.9 C 6.24 g/m*3 7.9 C 0 km/h
50 23-02-2008 09:55:02 8 C 6.2 g/m*3 8 C 0 km/h
Sensor: Nr:Datum:Temp:Abs-Feuchte:Windchill:Wind:
Aussen-T/F 51 23-02-2008 10:07:01 8.4 C 6.28 g/m*3 8.4 C 0 km/h
52 23-02-2008 10:19:02 8.6 C 6.27 g/m*3 8.6 C 0 km/h
53 23-02-2008 10:31:01 8.9 C 6.31 g/m*3 8.9 C 0 km/h
54 23-02-2008 10:43:01 9.4 C 6.24 g/m*3 9.4 C 0 km/h
55 23-02-2008 10:55:02 9.7 C 5.99 g/m*3 9.7 C 0 km/h
56 23-02-2008 11:07:01 10 C 5.73 g/m*3 10 C 0 km/h
57 23-02-2008 11:19:02 10.1 C 5.58 g/m*3 10.1 C 0 km/h
58 23-02-2008 11:31:02 10.2 C 5.52 g/m*3 10.2 C 0 km/h
59 23-02-2008 11:43:02 10.4 C 5.59 g/m*3 10.4 C 0 km/h
60 23-02-2008 11:55:02 10.8 C 5.63 g/m*3 10.8 C 0 km/h
61 23-02-2008 12:07:02 11.2 C 5.27 g/m*3 11.2 C 0 km/h
62 23-02-2008 12:19:02 11.3 C 5.1 g/m*3 11.3 C 0 km/h
63 23-02-2008 12:31:02 11.3 C 5.1 g/m*3 11.3 C 0 km/h
64 23-02-2008 12:43:02 11.8 C 5.05 g/m*3 11.8 C 0 km/h
65 23-02-2008 12:55:02 12.3 C 4.89 g/m*3 12.3 C 0 km/h
66 23-02-2008 13:07:03 12.6 C 4.98 g/m*3 12.6 C 0 km/h
67 23-02-2008 13:19:02 12.7 C 4.79 g/m*3 12.7 C 0 km/h
68 23-02-2008 13:31:02 12.7 C 4.79 g/m*3 12.7 C 0 km/h
69 23-02-2008 13:43:02 12.7 C 4.79 g/m*3 12.7 C 0 km/h
70 23-02-2008 13:55:01 13.2 C 4.71 g/m*3 13.2 C 0 km/h
71 23-02-2008 14:07:03 13.4 C 4.65 g/m*3 13.4 C 0 km/h
72 23-02-2008 14:19:02 13.8 C 4.65 g/m*3 13.8 C 0 km/h
73 23-02-2008 14:31:01 14 C 4.46 g/m*3 14 C 0 km/h
74 23-02-2008 14:43:01 14.1 C 4.49 g/m*3 14.1 C 0 km/h
75 23-02-2008 14:55:01 14.1 C 4.61 g/m*3 14.1 C 0 km/h
Sensor: Nr:Datum:Temp:Abs-Feuchte:Windchill:Wind:
Aussen-T/F 76 23-02-2008 15:07:01 13.9 C 4.68 g/m*3 13.9 C 0 km/h
77 23-02-2008 15:19:02 14.1 C 4.61 g/m*3 14.1 C 0 km/h
78 23-02-2008 15:31:01 14.2 C 4.64 g/m*3 14.2 C 0 km/h
79 23-02-2008 15:43:01 13.9 C 4.56 g/m*3 13.9 C 0 km/h
80 23-02-2008 15:55:02 13.6 C 4.71 g/m*3 13.6 C 0 km/h
81 23-02-2008 16:07:01 13.5 C 4.68 g/m*3 13.5 C 0 km/h
82 23-02-2008 16:19:02 13.4 C 4.65 g/m*3 13.4 C 0 km/h
83 23-02-2008 16:31:02 13.4 C 4.65 g/m*3 13.4 C 0 km/h
84 23-02-2008 16:43:02 13.1 C 4.68 g/m*3 13.1 C 0 km/h
85 23-02-2008 16:55:02 12.8 C 4.82 g/m*3 12.8 C 0 km/h
86 23-02-2008 17:07:03 13 C 4.76 g/m*3 13 C 0 km/h
87 23-02-2008 17:19:02 12.9 C 4.96 g/m*3 12.9 C 0 km/h
88 23-02-2008 17:31:02 12.8 C 5.04 g/m*3 12.8 C 0 km/h
89 23-02-2008 17:43:02 12.4 C 5.03 g/m*3 12.4 C 0 km/h
90 23-02-2008 17:55:02 11.9 C 4.98 g/m*3 11.9 C 0 km/h
91 23-02-2008 18:07:02 11.4 C 5.13 g/m*3 11.4 C 0 km/h
92 23-02-2008 18:19:03 10.8 C 5.24 g/m*3 10.8 C 0 km/h
93 23-02-2008 18:31:03 10.2 C 5.23 g/m*3 10.2 C 0 km/h
94 23-02-2008 18:43:03 9.8 C 5.29 g/m*3 9.8 C 0 km/h
95 23-02-2008 18:55:02 9.6 C 5.31 g/m*3 9.6 C 0 km/h
96 23-02-2008 19:07:02 9.4 C 5.34 g/m*3 9.4 C 0 km/h
97 23-02-2008 19:19:02 9.3 C 5.39 g/m*3 9.3 C 0 km/h
98 23-02-2008 19:31:02 9.2 C 5.36 g/m*3 9.2 C 0 km/h
99 23-02-2008 19:43:02 8.8 C 5.31 g/m*3 8.8 C 0 km/h
100 23-02-2008 19:55:02 8.6 C 5.41 g/m*3 8.6 C 0 km/h
Sensor: Nr:Datum:Temp:Abs-Feuchte:Windchill:Wind:
Aussen-T/F 101 23-02-2008 20:07:02 8.4 C 5.43 g/m*3 8.4 C 0 km/h
102 23-02-2008 20:19:02 8.2 C 5.36 g/m*3 8.2 C 0 km/h
103 23-02-2008 20:31:03 8 C 5.37 g/m*3 8 C 0 km/h
104 23-02-2008 20:43:03 7.9 C 5.5 g/m*3 7.9 C 0 km/h
105 23-02-2008 20:55:02 7.7 C 5.43 g/m*3 7.7 C 0 km/h
106 23-02-2008 21:07:02 7.4 C 5.33 g/m*3 7.4 C 0 km/h
107 23-02-2008 21:19:01 7.3 C 5.37 g/m*3 7.3 C 0 km/h
108 23-02-2008 21:31:02 7.2 C 5.42 g/m*3 7.2 C 0 km/h
109 23-02-2008 21:43:02 7.1 C 5.38 g/m*3 7.1 C 0 km/h
110 23-02-2008 21:55:02 6.8 C 5.35 g/m*3 6.8 C 0 km/h
111 23-02-2008 22:07:01 6.6 C 5.36 g/m*3 6.6 C 0 km/h
112 23-02-2008 22:20:02 6.5 C 5.32 g/m*3 6.5 C 0 km/h
113 23-02-2008 22:32:02 6.2 C 5.29 g/m*3 6.2 C 0 km/h
114 23-02-2008 22:44:02 5.9 C 5.26 g/m*3 5.9 C 0 km/h
115 23-02-2008 22:56:02 5.9 C 5.34 g/m*3 5.9 C 0 km/h
116 23-02-2008 23:08:02 5.8 C 5.3 g/m*3 5.8 C 0 km/h
117 23-02-2008 23:20:02 5.7 C 5.34 g/m*3 5.7 C 0 km/h
118 23-02-2008 23:32:02 5.7 C 5.41 g/m*3 5.7 C 0 km/h
119 23-02-2008 23:44:02 5.7 C 5.48 g/m*3 5.7 C 0 km/h
120 23-02-2008 23:56:02 5.4 C 5.37 g/m*3 5.4 C 0 km/h
121 24-02-2008 00:08:02 5.3 C 5.34 g/m*3 5.3 C 0 km/h
122 24-02-2008 00:20:02 5.3 C 5.41 g/m*3 5.3 C 0 km/h
123 24-02-2008 00:32:02 5.3 C 5.48 g/m*3 5.3 C 0 km/h
124 24-02-2008 00:44:02 5.1 C 5.4 g/m*3 5.1 C 0 km/h
125 24-02-2008 00:56:02 4.8 C 5.3 g/m*3 4.8 C 0 km/h
Sensor: Nr:Datum:Temp:Abs-Feuchte:Windchill:Wind:
Aussen-T/F 126 24-02-2008 01:08:02 4.8 C 5.3 g/m*3 4.8 C 0 km/h
127 24-02-2008 01:20:02 4.6 C 5.29 g/m*3 4.6 C 0 km/h
128 24-02-2008 01:32:02 4.6 C 5.36 g/m*3 4.6 C 0 km/h
129 24-02-2008 01:44:02 4.5 C 5.32 g/m*3 4.5 C 0 km/h
130 24-02-2008 01:56:03 4.3 C 5.25 g/m*3 4.3 C 0 km/h
131 24-02-2008 02:08:03 4.3 C 5.32 g/m*3 4.3 C 0 km/h
132 24-02-2008 02:20:03 4.1 C 5.25 g/m*3 4.1 C 0 km/h
133 24-02-2008 02:32:03 4 C 5.21 g/m*3 4 C 0 km/h
134 24-02-2008 02:44:03 3.8 C 5.21 g/m*3 3.8 C 0 km/h
135 24-02-2008 02:56:03 3.6 C 5.14 g/m*3 3.6 C 0 km/h
136 24-02-2008 03:08:03 3.5 C 5.1 g/m*3 3.5 C 0 km/h
137 24-02-2008 03:20:03 3.4 C 5.13 g/m*3 3.4 C 0 km/h
138 24-02-2008 03:32:03 3.3 C 5.1 g/m*3 3.3 C 0 km/h
139 24-02-2008 03:44:03 3.1 C 5.03 g/m*3 3.1 C 0 km/h
140 24-02-2008 03:56:03 3 C 4.99 g/m*3 3 C 0 km/h
141 24-02-2008 04:08:03 2.8 C 4.99 g/m*3 2.8 C 0 km/h
142 24-02-2008 04:20:03 2.7 C 4.95 g/m*3 2.7 C 0 km/h
143 24-02-2008 04:32:03 2.6 C 4.86 g/m*3 2.6 C 0 km/h
144 24-02-2008 04:44:03 2.5 C 4.83 g/m*3 2.5 C 0 km/h
145 24-02-2008 04:56:03 2.6 C 4.92 g/m*3 2.6 C 0 km/h
146 24-02-2008 05:08:03 2.5 C 4.94 g/m*3 2.5 C 0 km/h
147 24-02-2008 05:20:03 2.4 C 4.91 g/m*3 2.4 C 0 km/h
148 24-02-2008 05:32:03 2.3 C 4.88 g/m*3 2.3 C 0 km/h
149 24-02-2008 05:44:03 2.1 C 4.81 g/m*3 2.1 C 0 km/h
150 24-02-2008 05:56:03 2.1 C 4.81 g/m*3 2.1 C 0 km/h
Sensor: Nr:Datum:Temp:Abs-Feuchte:Windchill:Wind:
Aussen-T/F 151 24-02-2008 06:08:04 2.1 C 4.81 g/m*3 2.1 C 0 km/h
152 24-02-2008 06:20:04 1.9 C 4.8 g/m*3 1.9 C 0 km/h
153 24-02-2008 06:32:04 1.8 C 4.77 g/m*3 1.8 C 0 km/h
154 24-02-2008 06:44:04 1.9 C 4.86 g/m*3 1.9 C 0 km/h
155 24-02-2008 06:56:04 1.8 C 4.82 g/m*3 1.8 C 0 km/h
156 24-02-2008 07:08:04 1.8 C 4.82 g/m*3 1.8 C 0 km/h
157 24-02-2008 07:20:04 1.8 C 4.88 g/m*3 1.8 C 0 km/h
158 24-02-2008 07:32:04 1.6 C 4.81 g/m*3 1.6 C 0 km/h
159 24-02-2008 07:44:04 1.7 C 4.85 g/m*3 1.7 C 0 km/h
160 24-02-2008 07:56:04 1.8 C 4.88 g/m*3 1.8 C 0 km/h
161 24-02-2008 08:08:04 2.1 C 4.98 g/m*3 2.1 C 0 km/h
162 24-02-2008 08:20:04 2.2 C 5.01 g/m*3 2.2 C 0 km/h
163 24-02-2008 08:32:04 2.7 C 5.24 g/m*3 2.7 C 0 km/h
164 24-02-2008 08:44:04 3.2 C 5.42 g/m*3 3.2 C 0 km/h
165 24-02-2008 08:56:04 3.6 C 5.63 g/m*3 3.6 C 0 km/h
166 24-02-2008 09:08:04 4.1 C 5.76 g/m*3 4.1 C 0 km/h
167 24-02-2008 09:20:04 4.5 C 5.98 g/m*3 4.5 C 0 km/h
168 24-02-2008 09:32:04 4.8 C 6.1 g/m*3 4.8 C 0 km/h
169 24-02-2008 09:44:04 5 C 6.05 g/m*3 5 C 0 km/h
170 24-02-2008 09:56:02 5.1 C 6.02 g/m*3 5.1 C 0 km/h
171 24-02-2008 10:08:02 5.2 C 5.99 g/m*3 5.2 C 0 km/h
172 24-02-2008 10:20:02 5.6 C 6.08 g/m*3 5.6 C 0 km/h
173 24-02-2008 10:32:02 5.7 C 5.98 g/m*3 5.7 C 0 km/h
174 24-02-2008 10:44:02 5.8 C 6.02 g/m*3 5.8 C 0 km/h
175 24-02-2008 10:56:01 6.1 C 5.92 g/m*3 6.1 C 0 km/h
Sensor: Nr:Datum:Temp:Abs-Feuchte:Windchill:Wind:
Aussen-T/F 176 24-02-2008 11:08:02 6.9 C 6.08 g/m*3 6.9 C 0 km/h
177 24-02-2008 11:20:02 7 C 5.89 g/m*3 7 C 0 km/h
178 24-02-2008 11:32:02 7.4 C 6.04 g/m*3 7.4 C 0 km/h
179 24-02-2008 11:44:02 7.9 C 5.91 g/m*3 7.9 C 0 km/h
180 24-02-2008 11:56:02 8.2 C 5.86 g/m*3 8.2 C 0 km/h
181 24-02-2008 12:08:02 8.4 C 5.85 g/m*3 8.4 C 0 km/h
182 24-02-2008 12:20:02 8.9 C 5.87 g/m*3 8.9 C 0 km/h
183 24-02-2008 12:32:02 8.2 C 5.44 g/m*3 8.2 C 0 km/h
184 24-02-2008 12:44:02 8.3 C 5.65 g/m*3 8.3 C 0 km/h
185 24-02-2008 12:56:02 8.4 C 5.68 g/m*3 8.4 C 0 km/h
186 24-02-2008 13:08:02 8.2 C 5.69 g/m*3 8.2 C 0 km/h
187 24-02-2008 13:20:02 8.7 C 5.88 g/m*3 8.7 C 0 km/h
188 24-02-2008 13:32:01 9 C 5.73 g/m*3 9 C 0 km/h
189 24-02-2008 13:44:01 9.9 C 5.98 g/m*3 9.9 C 0 km/h
190 24-02-2008 13:56:02 10.8 C 6.03 g/m*3 10.8 C 0 km/h
191 24-02-2008 14:08:03 11.5 C 5.89 g/m*3 11.5 C 0 km/h
192 24-02-2008 14:20:02 12 C 5.75 g/m*3 12 C 0 km/h
193 24-02-2008 14:32:02 12.7 C 5.79 g/m*3 12.7 C 0 km/h
194 24-02-2008 14:44:02 13.3 C 5.55 g/m*3 13.3 C 0 km/h
195 24-02-2008 14:56:02 13.7 C 5.45 g/m*3 13.7 C 0 km/h
196 24-02-2008 15:08:02 14.3 C 5.41 g/m*3 14.3 C 0 km/h
197 24-02-2008 15:20:02 14.2 C 5.49 g/m*3 14.2 C 0 km/h
198 24-02-2008 15:32:02 14.3 C 5.41 g/m*3 14.3 C 0 km/h
199 24-02-2008 15:44:02 14.7 C 5.41 g/m*3 14.7 C 0 km/h
200 24-02-2008 15:56:02 14.4 C 5.32 g/m*3 14.4 C 0 km/h
Sensor: Nr:Datum:Temp:Abs-Feuchte:Windchill:Wind:
Aussen-T/F 201 24-02-2008 16:08:02 15.1 C 5.42 g/m*3 15.1 C 0 km/h
202 24-02-2008 16:20:02 14.8 C 5.45 g/m*3 14.8 C 0 km/h
203 24-02-2008 16:32:02 14.5 C 5.6 g/m*3 14.5 C 0 km/h
204 24-02-2008 16:44:02 14 C 5.55 g/m*3 14 C 0 km/h
205 24-02-2008 16:56:01 13.9 C 5.63 g/m*3 13.9 C 0 km/h
206 24-02-2008 17:08:02 14.1 C 5.46 g/m*3 14.1 C 0 km/h
207 24-02-2008 17:20:03 13.6 C 5.53 g/m*3 13.6 C 0 km/h
208 24-02-2008 17:32:02 13 C 5.56 g/m*3 13 C 0 km/h
209 24-02-2008 17:44:02 12.4 C 5.68 g/m*3 12.4 C 0 km/h
210 24-02-2008 17:56:02 11.4 C 5.85 g/m*3 11.4 C 0 km/h
211 24-02-2008 18:08:01 10.3 C 5.84 g/m*3 10.3 C 0 km/h
212 24-02-2008 18:20:01 9.7 C 5.99 g/m*3 9.7 C 0 km/h
213 24-02-2008 18:32:01 9.4 C 5.97 g/m*3 9.4 C 0 km/h
214 24-02-2008 18:44:01 9.1 C 6.12 g/m*3 9.1 C 0 km/h
215 24-02-2008 18:56:02 9 C 6.08 g/m*3 9 C 0 km/h
216 24-02-2008 19:08:02 8.7 C 6.14 g/m*3 8.7 C 0 km/h
217 24-02-2008 19:20:02 8.4 C 6.02 g/m*3 8.4 C 0 km/h
218 24-02-2008 19:32:02 8.1 C 5.91 g/m*3 8.1 C 0 km/h
219 24-02-2008 19:44:02 8 C 6.04 g/m*3 8 C 0 km/h
220 24-02-2008 19:56:02 7.9 C 6.24 g/m*3 7.9 C 0 km/h
221 24-02-2008 20:08:02 7.7 C 6.08 g/m*3 7.7 C 0 km/h
222 24-02-2008 20:20:02 7.5 C 5.92 g/m*3 7.5 C 0 km/h
223 24-02-2008 20:32:02 7.3 C 6 g/m*3 7.3 C 0 km/h
224 24-02-2008 20:44:02 6.9 C 6 g/m*3 6.9 C 0 km/h
225 24-02-2008 20:56:02 6.6 C 5.81 g/m*3 6.6 C 0 km/h
Sensor: Nr:Datum:Temp:Abs-Feuchte:Windchill:Wind:
Aussen-T/F 226 24-02-2008 21:08:02 6.4 C 5.89 g/m*3 6.4 C 0 km/h
227 24-02-2008 21:20:03 6.2 C 5.81 g/m*3 6.2 C 0 km/h
228 24-02-2008 21:32:02 6 C 5.73 g/m*3 6 C 0 km/h
229 24-02-2008 21:44:03 6 C 5.88 g/m*3 6 C 0 km/h
230 24-02-2008 21:56:02 5.9 C 5.91 g/m*3 5.9 C 0 km/h
231 24-02-2008 22:08:02 5.7 C 5.84 g/m*3 5.7 C 0 km/h
232 24-02-2008 22:21:02 5.5 C 5.83 g/m*3 5.5 C 0 km/h
233 24-02-2008 22:33:02 5.5 C 5.83 g/m*3 5.5 C 0 km/h
234 24-02-2008 22:45:03 5.6 C 5.94 g/m*3 5.6 C 0 km/h
235 24-02-2008 22:57:03 5.2 C 5.71 g/m*3 5.2 C 0 km/h
236 24-02-2008 23:09:03 5.1 C 5.68 g/m*3 5.1 C 0 km/h
237 24-02-2008 23:21:03 4.9 C 5.6 g/m*3 4.9 C 0 km/h
238 24-02-2008 23:33:03 4.9 C 5.67 g/m*3 4.9 C 0 km/h
239 24-02-2008 23:45:03 5 C 5.64 g/m*3 5 C 0 km/h
240 24-02-2008 23:57:03 4.9 C 5.74 g/m*3 4.9 C 0 km/h
241 25-02-2008 00:09:03 4.8 C 5.77 g/m*3 4.8 C 0 km/h
242 25-02-2008 00:21:03 5.1 C 5.88 g/m*3 5.1 C 0 km/h
243 25-02-2008 00:33:03 5.3 C 6.03 g/m*3 5.3 C 0 km/h
244 25-02-2008 00:45:03 5.2 C 5.99 g/m*3 5.2 C 0 km/h
245 25-02-2008 00:57:03 5.2 C 5.99 g/m*3 5.2 C 0 km/h
246 25-02-2008 01:09:03 5.4 C 6.14 g/m*3 5.4 C 0 km/h
247 25-02-2008 01:21:03 5.3 C 6.03 g/m*3 5.3 C 0 km/h
248 25-02-2008 01:33:03 5.5 C 6.18 g/m*3 5.5 C 0 km/h
249 25-02-2008 01:45:03 5.3 C 6.03 g/m*3 5.3 C 0 km/h
250 25-02-2008 01:57:03 6.7 C 6.61 g/m*3 6.7 C 0 km/h
Sensor: Nr:Datum:Temp:Abs-Feuchte:Windchill:Wind:
Aussen-T/F 251 25-02-2008 02:09:03 7.1 C 6.4 g/m*3 7.1 C 0 km/h
252 25-02-2008 02:21:03 7.3 C 6.16 g/m*3 7.3 C 0 km/h
253 25-02-2008 02:33:03 7.5 C 6.16 g/m*3 7.5 C 0 km/h
254 25-02-2008 02:45:04 7.6 C 6.12 g/m*3 7.6 C 0 km/h
255 25-02-2008 02:57:04 7.6 C 6.12 g/m*3 7.6 C 0 km/h
256 25-02-2008 03:09:04 7.6 C 6.04 g/m*3 7.6 C 0 km/h
257 25-02-2008 03:21:04 7.8 C 6.04 g/m*3 7.8 C 0 km/h
258 25-02-2008 03:33:04 7.9 C 6 g/m*3 7.9 C 0 km/h
259 25-02-2008 03:45:04 8 C 5.87 g/m*3 8 C 0 km/h
260 25-02-2008 03:57:04 8 C 5.87 g/m*3 8 C 0 km/h
261 25-02-2008 04:09:04 8.1 C 5.91 g/m*3 8.1 C 0 km/h
262 25-02-2008 04:21:04 8 C 6.04 g/m*3 8 C 0 km/h
263 25-02-2008 04:33:04 8.2 C 6.11 g/m*3 8.2 C 0 km/h
264 25-02-2008 04:45:04 8.2 C 6.11 g/m*3 8.2 C 0 km/h
265 25-02-2008 04:57:04 8 C 6.28 g/m*3 8 C 0 km/h
266 25-02-2008 05:09:04 8 C 6.45 g/m*3 8 C 0 km/h
267 25-02-2008 05:21:04 7.9 C 6.65 g/m*3 7.9 C 0 km/h
268 25-02-2008 05:33:04 8 C 6.7 g/m*3 8 C 0 km/h
269 25-02-2008 05:45:04 7.9 C 6.82 g/m*3 7.9 C 0 km/h
270 25-02-2008 05:57:04 7.9 C 6.9 g/m*3 7.9 C 0 km/h
271 25-02-2008 06:09:04 7.8 C 6.86 g/m*3 7.8 C 0 km/h
272 25-02-2008 06:21:04 7.8 C 6.86 g/m*3 7.8 C 0 km/h
273 25-02-2008 06:33:05 7.9 C 6.98 g/m*3 7.9 C 0 km/h
274 25-02-2008 06:45:05 8.1 C 6.91 g/m*3 8.1 C 0 km/h
275 25-02-2008 06:57:05 8.2 C 6.87 g/m*3 8.2 C 0 km/h
Sensor: Nr:Datum:Temp:Abs-Feuchte:Windchill:Wind:
Aussen-T/F 276 25-02-2008 07:09:02 8.2 C 6.78 g/m*3 8.2 C 0 km/h
277 25-02-2008 07:21:02 8.2 C 6.78 g/m*3 8.2 C 0 km/h
278 25-02-2008 07:33:03 8.1 C 6.74 g/m*3 8.1 C 0 km/h
279 25-02-2008 07:45:03 8.1 C 6.82 g/m*3 8.1 C 0 km/h
280 25-02-2008 07:57:03 8.1 C 6.82 g/m*3 8.1 C 0 km/h
281 25-02-2008 08:09:02 8.2 C 6.87 g/m*3 8.2 C 0 km/h
282 25-02-2008 08:21:02 8.2 C 6.95 g/m*3 8.2 C 0 km/h
283 25-02-2008 08:33:02 8.2 C 6.87 g/m*3 8.2 C 0 km/h
284 25-02-2008 08:45:02 8.5 C 7 g/m*3 8.5 C 0 km/h
285 25-02-2008 08:57:02 8.5 C 6.83 g/m*3 8.5 C 0 km/h
286 25-02-2008 09:09:03 8.7 C 6.4 g/m*3 8.7 C 0 km/h
287 25-02-2008 09:21:02 8.9 C 6.31 g/m*3 8.9 C 0 km/h
288 25-02-2008 09:33:02 8.9 C 6.13 g/m*3 8.9 C 0 km/h
289 25-02-2008 09:45:02 9.1 C 6.12 g/m*3 9.1 C 0 km/h
290 25-02-2008 09:57:02 9.1 C 5.94 g/m*3 9.1 C 0 km/h
291 25-02-2008 10:09:02 9 C 5.82 g/m*3 9 C 0 km/h
292 25-02-2008 10:21:02 9 C 5.73 g/m*3 9 C 0 km/h
293 25-02-2008 10:33:02 9.1 C 5.86 g/m*3 9.1 C 0 km/h
294 25-02-2008 10:45:02 9.3 C 5.84 g/m*3 9.3 C 0 km/h
295 25-02-2008 10:57:03 9.5 C 5.92 g/m*3 9.5 C 0 km/h
296 25-02-2008 11:09:01 9.5 C 5.73 g/m*3 9.5 C 0 km/h
297 25-02-2008 11:21:02 9.8 C 5.57 g/m*3 9.8 C 0 km/h
298 25-02-2008 11:33:01 9.8 C 5.29 g/m*3 9.8 C 0 km/h
299 25-02-2008 11:45:02 10.2 C 5.42 g/m*3 10.2 C 0 km/h
300 25-02-2008 11:57:02 10.9 C 5.17 g/m*3 10.9 C 0 km/h
Sensor: Nr:Datum:Temp:Abs-Feuchte:Windchill:Wind:
Aussen-T/F 301 25-02-2008 12:09:02 10.4 C 5.11 g/m*3 10.4 C 0 km/h
302 25-02-2008 12:21:02 10.4 C 5.3 g/m*3 10.4 C 0 km/h
303 25-02-2008 12:33:02 11 C 5.1 g/m*3 11 C 0 km/h
304 25-02-2008 12:45:03 11 C 5.1 g/m*3 11 C 0 km/h
305 25-02-2008 12:57:04 11.2 C 5.07 g/m*3 11.2 C 0 km/h
306 25-02-2008 13:09:02 11.5 C 5.06 g/m*3 11.5 C 0 km/h
307 25-02-2008 13:21:02 12.4 C 5.03 g/m*3 12.4 C 0 km/h
308 25-02-2008 13:33:03 12.8 C 5.04 g/m*3 12.8 C 0 km/h
309 25-02-2008 13:45:02 13.1 C 4.79 g/m*3 13.1 C 0 km/h
310 25-02-2008 13:57:02 14 C 4.95 g/m*3 14 C 0 km/h
311 25-02-2008 14:09:02 14.7 C 4.78 g/m*3 14.7 C 0 km/h
312 25-02-2008 14:21:02 14.8 C 4.81 g/m*3 14.8 C 0 km/h
313 25-02-2008 14:33:02 14.6 C 4.63 g/m*3 14.6 C 0 km/h
314 25-02-2008 14:45:02 14.9 C 4.59 g/m*3 14.9 C 0 km/h
315 25-02-2008 14:57:02 15 C 4.49 g/m*3 15 C 0 km/h
316 25-02-2008 15:09:02 14.8 C 4.56 g/m*3 14.8 C 0 km/h
317 25-02-2008 15:21:01 15 C 4.74 g/m*3 15 C 0 km/h
318 25-02-2008 15:33:02 15.3 C 4.57 g/m*3 15.3 C 0 km/h
319 25-02-2008 15:45:02 15.6 C 4.52 g/m*3 15.6 C 0 km/h
320 25-02-2008 15:57:02 15.8 C 4.44 g/m*3 15.8 C 0 km/h
321 25-02-2008 16:09:02 15.9 C 4.47 g/m*3 15.9 C 0 km/h
322 25-02-2008 16:21:02 15.9 C 4.33 g/m*3 15.9 C 0 km/h
323 25-02-2008 16:33:02 14.8 C 4.43 g/m*3 14.8 C 0 km/h
324 25-02-2008 16:45:02 14.3 C 4.55 g/m*3 14.3 C 0 km/h
325 25-02-2008 16:57:02 13.9 C 5.15 g/m*3 13.9 C 0 km/h
Sensor: Nr:Datum:Temp:Abs-Feuchte:Windchill:Wind:
Aussen-T/F 326 25-02-2008 17:09:02 13.5 C 5.26 g/m*3 13.5 C 0 km/h
327 25-02-2008 17:21:02 13.2 C 5.51 g/m*3 13.2 C 0 km/h
328 25-02-2008 17:33:02 12.7 C 5.57 g/m*3 12.7 C 0 km/h
329 25-02-2008 17:45:01 12.2 C 5.61 g/m*3 12.2 C 0 km/h
330 25-02-2008 17:57:01 11.7 C 5.75 g/m*3 11.7 C 0 km/h
331 25-02-2008 18:09:02 11.1 C 5.74 g/m*3 11.1 C 0 km/h
332 25-02-2008 18:21:01 10.8 C 5.83 g/m*3 10.8 C 0 km/h
333 25-02-2008 18:33:02 10.7 C 5.89 g/m*3 10.7 C 0 km/h
334 25-02-2008 18:45:02 10.4 C 5.88 g/m*3 10.4 C 0 km/h
335 25-02-2008 18:57:02 10.4 C 5.98 g/m*3 10.4 C 0 km/h
336 25-02-2008 19:09:02 10.6 C 5.95 g/m*3 10.6 C 0 km/h
337 25-02-2008 19:21:01 10.6 C 5.95 g/m*3 10.6 C 0 km/h
338 25-02-2008 19:33:01 10.5 C 5.92 g/m*3 10.5 C 0 km/h
339 25-02-2008 19:45:03 10.5 C 6.01 g/m*3 10.5 C 0 km/h
340 25-02-2008 19:57:03 10.5 C 6.01 g/m*3 10.5 C 0 km/h
341 25-02-2008 20:09:02 10.7 C 6.09 g/m*3 10.7 C 0 km/h
342 25-02-2008 20:21:02 10.7 C 6.09 g/m*3 10.7 C 0 km/h
343 25-02-2008 20:33:03 10.6 C 6.05 g/m*3 10.6 C 0 km/h
344 25-02-2008 20:45:02 10.6 C 6.15 g/m*3 10.6 C 0 km/h
345 25-02-2008 20:57:02 10.7 C 6.09 g/m*3 10.7 C 0 km/h
346 25-02-2008 21:09:02 10.8 C 6.13 g/m*3 10.8 C 0 km/h
347 25-02-2008 21:21:02 10.8 C 6.03 g/m*3 10.8 C 0 km/h
348 25-02-2008 21:33:02 10.5 C 6.01 g/m*3 10.5 C 0 km/h
349 25-02-2008 21:45:02 10.1 C 6.05 g/m*3 10.1 C 0 km/h
350 25-02-2008 21:57:02 10.1 C 6.15 g/m*3 10.1 C 0 km/h
Sensor: Nr:Datum:Temp:Abs-Feuchte:Windchill:Wind:
Aussen-T/F 351 25-02-2008 22:09:02 10 C 6.11 g/m*3 10 C 0 km/h
352 25-02-2008 22:21:02 10.1 C 6.24 g/m*3 10.1 C 0 km/h
353 25-02-2008 22:33:02 10.1 C 6.24 g/m*3 10.1 C 0 km/h
354 25-02-2008 22:45:02 10.2 C 6.38 g/m*3 10.2 C 0 km/h
355 25-02-2008 22:57:02 10.2 C 6.38 g/m*3 10.2 C 0 km/h
356 25-02-2008 23:09:02 10.2 C 6.38 g/m*3 10.2 C 0 km/h
357 25-02-2008 23:21:02 10.1 C 6.34 g/m*3 10.1 C 0 km/h
358 25-02-2008 23:33:02 10 C 6.3 g/m*3 10 C 0 km/h
359 25-02-2008 23:45:02 10.1 C 6.43 g/m*3 10.1 C 0 km/h
360 25-02-2008 23:57:02 10.2 C 6.38 g/m*3 10.2 C 0 km/h
361 26-02-2008 00:09:02 10.3 C 6.42 g/m*3 10.3 C 0 km/h
362 26-02-2008 00:21:02 10.4 C 6.55 g/m*3 10.4 C 0 km/h
363 26-02-2008 00:33:02 10.5 C 6.6 g/m*3 10.5 C 0 km/h
364 26-02-2008 00:45:02 10.4 C 6.55 g/m*3 10.4 C 0 km/h
365 26-02-2008 00:57:02 10.5 C 6.6 g/m*3 10.5 C 0 km/h
366 26-02-2008 01:09:02 10.1 C 6.52 g/m*3 10.1 C 0 km/h
367 26-02-2008 01:21:02 9.7 C 6.55 g/m*3 9.7 C 0 km/h
368 26-02-2008 01:33:02 9.4 C 6.6 g/m*3 9.4 C 0 km/h
369 26-02-2008 01:45:01 9.7 C 6.82 g/m*3 9.7 C 0 km/h
370 26-02-2008 01:57:01 10 C 6.77 g/m*3 10 C 0 km/h
371 26-02-2008 02:09:01 9.8 C 6.77 g/m*3 9.8 C 0 km/h
372 26-02-2008 02:21:02 9.7 C 6.82 g/m*3 9.7 C 0 km/h
373 26-02-2008 02:33:02 9.9 C 6.82 g/m*3 9.9 C 0 km/h
374 26-02-2008 02:46:03 10.2 C 6.85 g/m*3 10.2 C 0 km/h
375 26-02-2008 02:58:03 10.4 C 6.84 g/m*3 10.4 C 0 km/h
Sensor: Nr:Datum:Temp:Abs-Feuchte:Windchill:Wind:
Aussen-T/F 376 26-02-2008 03:10:03 10.8 C 6.82 g/m*3 10.8 C 0 km/h
377 26-02-2008 03:22:03 10.7 C 6.68 g/m*3 10.7 C 0 km/h
378 26-02-2008 03:34:02 10.7 C 6.78 g/m*3 10.7 C 0 km/h
379 26-02-2008 03:46:02 10.6 C 6.73 g/m*3 10.6 C 0 km/h
380 26-02-2008 03:58:02 10.5 C 6.69 g/m*3 10.5 C 0 km/h
381 26-02-2008 04:10:02 10.4 C 6.75 g/m*3 10.4 C 0 km/h
382 26-02-2008 04:22:02 10.5 C 6.89 g/m*3 10.5 C 0 km/h
383 26-02-2008 04:34:02 10.5 C 6.89 g/m*3 10.5 C 0 km/h
384 26-02-2008 04:46:02 10.5 C 6.79 g/m*3 10.5 C 0 km/h
385 26-02-2008 04:58:02 10.4 C 6.75 g/m*3 10.4 C 0 km/h
386 26-02-2008 05:10:01 10.3 C 6.7 g/m*3 10.3 C 0 km/h
387 26-02-2008 05:22:02 10.6 C 6.83 g/m*3 10.6 C 0 km/h
388 26-02-2008 05:34:02 10.6 C 6.73 g/m*3 10.6 C 0 km/h
389 26-02-2008 05:46:02 10.5 C 6.69 g/m*3 10.5 C 0 km/h
390 26-02-2008 05:58:02 10.4 C 6.75 g/m*3 10.4 C 0 km/h
391 26-02-2008 06:10:03 10.4 C 6.75 g/m*3 10.4 C 0 km/h
392 26-02-2008 06:22:02 10.4 C 6.65 g/m*3 10.4 C 0 km/h
393 26-02-2008 06:34:02 10.4 C 6.55 g/m*3 10.4 C 0 km/h
394 26-02-2008 06:46:01 10.4 C 6.55 g/m*3 10.4 C 0 km/h
395 26-02-2008 06:58:01 10.3 C 6.51 g/m*3 10.3 C 0 km/h
396 26-02-2008 07:10:01 10.1 C 6.43 g/m*3 10.1 C 0 km/h
397 26-02-2008 07:22:02 10 C 6.39 g/m*3 10 C 0 km/h
398 26-02-2008 07:34:01 10 C 6.39 g/m*3 10 C 0 km/h
399 26-02-2008 07:46:02 10 C 6.39 g/m*3 10 C 0 km/h
400 26-02-2008 07:58:02 10 C 6.39 g/m*3 10 C 0 km/h
Sensor: Nr:Datum:Temp:Abs-Feuchte:Windchill:Wind:
Aussen-T/F 401 26-02-2008 08:10:01 10.2 C 6.47 g/m*3 10.2 C 0 km/h
402 26-02-2008 08:22:02 10.5 C 6.5 g/m*3 10.5 C 0 km/h
403 26-02-2008 08:34:02 10.8 C 6.42 g/m*3 10.8 C 0 km/h
404 26-02-2008 08:46:02 11 C 6.31 g/m*3 11 C 0 km/h
405 26-02-2008 08:58:02 11.1 C 6.14 g/m*3 11.1 C 0 km/h
406 26-02-2008 09:10:02 11.4 C 5.95 g/m*3 11.4 C 0 km/h
407 26-02-2008 09:22:02 11.7 C 5.86 g/m*3 11.7 C 0 km/h
408 26-02-2008 09:34:02 11.9 C 5.82 g/m*3 11.9 C 0 km/h
409 26-02-2008 09:46:02 12.2 C 5.5 g/m*3 12.2 C 0 km/h
410 26-02-2008 09:58:02 12.6 C 5.42 g/m*3 12.6 C 0 km/h
411 26-02-2008 10:10:02 13.1 C 5.25 g/m*3 13.1 C 0 km/h
412 26-02-2008 10:22:02 13.5 C 5.26 g/m*3 13.5 C 0 km/h
413 26-02-2008 10:34:02 13.5 C 5.26 g/m*3 13.5 C 0 km/h
414 26-02-2008 10:46:01 13.5 C 5.26 g/m*3 13.5 C 0 km/h
415 26-02-2008 10:58:01 13.7 C 5.33 g/m*3 13.7 C 0 km/h
416 26-02-2008 11:10:01 13.7 C 5.33 g/m*3 13.7 C 0 km/h
417 26-02-2008 11:22:02 13.8 C 5.36 g/m*3 13.8 C 0 km/h
418 26-02-2008 11:34:01 13.7 C 5.45 g/m*3 13.7 C 0 km/h
419 26-02-2008 11:46:02 13.7 C 5.45 g/m*3 13.7 C 0 km/h
420 26-02-2008 11:58:02 13.6 C 5.41 g/m*3 13.6 C 0 km/h
421 26-02-2008 12:10:01 13.5 C 5.5 g/m*3 13.5 C 0 km/h
422 26-02-2008 12:22:02 13.4 C 5.46 g/m*3 13.4 C 0 km/h
423 26-02-2008 12:34:02 13.4 C 5.58 g/m*3 13.4 C 0 km/h
424 26-02-2008 12:46:02 13.4 C 5.58 g/m*3 13.4 C 0 km/h
425 26-02-2008 12:58:02 13.4 C 5.58 g/m*3 13.4 C 0 km/h
Sensor: Nr:Datum:Temp:Abs-Feuchte:Windchill:Wind:
Aussen-T/F 426 26-02-2008 13:10:02 13.4 C 5.7 g/m*3 13.4 C 0 km/h
427 26-02-2008 13:22:02 13.4 C 5.81 g/m*3 13.4 C 0 km/h
428 26-02-2008 13:34:02 13.4 C 5.81 g/m*3 13.4 C 0 km/h
429 26-02-2008 13:46:02 13.5 C 5.97 g/m*3 13.5 C 0 km/h
430 26-02-2008 13:58:02 13.5 C 6.08 g/m*3 13.5 C 0 km/h
431 26-02-2008 14:10:02 13.5 C 6.08 g/m*3 13.5 C 0 km/h
432 26-02-2008 14:22:03 13.4 C 6.04 g/m*3 13.4 C 0 km/h
433 26-02-2008 14:34:02 13.4 C 6.16 g/m*3 13.4 C 0 km/h
434 26-02-2008 14:46:02 13.4 C 6.16 g/m*3 13.4 C 0 km/h
435 26-02-2008 14:58:02 13.4 C 6.16 g/m*3 13.4 C 0 km/h
436 26-02-2008 15:10:01 13.2 C 6.09 g/m*3 13.2 C 0 km/h
437 26-02-2008 15:22:02 13.2 C 6.2 g/m*3 13.2 C 0 km/h
438 26-02-2008 15:34:01 13.1 C 6.05 g/m*3 13.1 C 0 km/h
439 26-02-2008 15:46:02 13 C 6.12 g/m*3 13 C 0 km/h
440 26-02-2008 15:58:02 12.9 C 6.2 g/m*3 12.9 C 0 km/h
441 26-02-2008 16:10:01 12.8 C 6.16 g/m*3 12.8 C 0 km/h
442 26-02-2008 16:22:02 12.7 C 6.23 g/m*3 12.7 C 0 km/h
443 26-02-2008 16:34:02 12.4 C 6.45 g/m*3 12.4 C 0 km/h
444 26-02-2008 16:46:02 12 C 6.5 g/m*3 12 C 0 km/h
445 26-02-2008 16:58:02 12 C 6.5 g/m*3 12 C 0 km/h
446 26-02-2008 17:10:02 11.8 C 6.63 g/m*3 11.8 C 0 km/h
447 26-02-2008 17:22:02 11.8 C 6.74 g/m*3 11.8 C 0 km/h
448 26-02-2008 17:34:02 11.2 C 6.99 g/m*3 11.2 C 0 km/h
449 26-02-2008 17:46:01 10.9 C 7.16 g/m*3 10.9 C 0 km/h
450 26-02-2008 17:58:01 10.8 C 7.22 g/m*3 10.8 C 0 km/h
Sensor: Nr:Datum:Temp:Abs-Feuchte:Windchill:Wind:
Aussen-T/F 451 26-02-2008 18:10:01 10.5 C 7.37 g/m*3 10.5 C 0 km/h
452 26-02-2008 18:22:01 10.4 C 7.61 g/m*3 10.4 C 0 km/h
453 26-02-2008 18:34:02 10.4 C 7.61 g/m*3 10.4 C 0 km/h
454 26-02-2008 18:46:02 10.5 C 7.57 g/m*3 10.5 C 0 km/h
455 26-02-2008 18:58:02 10.4 C 7.52 g/m*3 10.4 C 0 km/h
456 26-02-2008 19:10:02 10.4 C 7.52 g/m*3 10.4 C 0 km/h
457 26-02-2008 19:22:02 10.5 C 7.57 g/m*3 10.5 C 0 km/h
458 26-02-2008 19:34:02 10.5 C 7.57 g/m*3 10.5 C 0 km/h
459 26-02-2008 19:46:02 10.3 C 7.57 g/m*3 10.3 C 0 km/h
460 26-02-2008 19:58:02 10.1 C 7.66 g/m*3 10.1 C 0 km/h
461 26-02-2008 20:10:02 10.1 C 7.75 g/m*3 10.1 C 0 km/h
462 26-02-2008 20:22:02 10.1 C 7.75 g/m*3 10.1 C 0 km/h
463 26-02-2008 20:34:02 10.2 C 7.8 g/m*3 10.2 C 0 km/h
464 26-02-2008 20:46:02 10.1 C 7.75 g/m*3 10.1 C 0 km/h
465 26-02-2008 20:58:02 9.8 C 7.33 g/m*3 9.8 C 0 km/h
466 26-02-2008 21:10:03 9.7 C 6.27 g/m*3 9.7 C 0 km/h
467 26-02-2008 21:22:03 9.3 C 6.2 g/m*3 9.3 C 0 km/h
468 26-02-2008 21:34:02 9.4 C 6.15 g/m*3 9.4 C 0 km/h
469 26-02-2008 21:46:02 9.2 C 6.16 g/m*3 9.2 C 0 km/h
470 26-02-2008 21:58:02 9.3 C 6.2 g/m*3 9.3 C 0 km/h
471 26-02-2008 22:10:02 9.3 C 6.29 g/m*3 9.3 C 0 km/h
472 26-02-2008 22:23:03 9.2 C 6.16 g/m*3 9.2 C 0 km/h
473 26-02-2008 22:35:04 9 C 6.17 g/m*3 9 C 0 km/h
474 26-02-2008 22:47:04 8.9 C 6.22 g/m*3 8.9 C 0 km/h
475 26-02-2008 22:59:04 8.6 C 6.02 g/m*3 8.6 C 0 km/h
Sensor: Nr:Datum:Temp:Abs-Feuchte:Windchill:Wind:
Aussen-T/F 476 26-02-2008 23:11:04 8.7 C 5.97 g/m*3 8.7 C 0 km/h
477 26-02-2008 23:23:04 8.4 C 5.94 g/m*3 8.4 C 0 km/h
478 26-02-2008 23:35:04 8.1 C 5.91 g/m*3 8.1 C 0 km/h
479 26-02-2008 23:47:04 8.1 C 5.74 g/m*3 8.1 C 0 km/h
480 26-02-2008 23:59:04 8 C 5.79 g/m*3 8 C 0 km/h
481 27-02-2008 00:11:04 7.8 C 5.63 g/m*3 7.8 C 0 km/h
482 27-02-2008 00:23:04 7.8 C 5.14 g/m*3 7.8 C 0 km/h
483 27-02-2008 00:35:04 7.6 C 5.08 g/m*3 7.6 C 0 km/h
484 27-02-2008 00:47:04 7.6 C 4.91 g/m*3 7.6 C 0 km/h
485 27-02-2008 00:59:04 7.8 C 4.82 g/m*3 7.8 C 0 km/h
486 27-02-2008 01:11:04 7.6 C 4.67 g/m*3 7.6 C 0 km/h
487 27-02-2008 01:23:04 7.4 C 4.69 g/m*3 7.4 C 0 km/h
488 27-02-2008 01:35:04 7.4 C 4.69 g/m*3 7.4 C 0 km/h
489 27-02-2008 01:47:04 7.5 C 4.72 g/m*3 7.5 C 0 km/h
490 27-02-2008 01:59:04 7.4 C 4.69 g/m*3 7.4 C 0 km/h
491 27-02-2008 02:11:04 7.4 C 4.69 g/m*3 7.4 C 0 km/h
492 27-02-2008 02:23:04 7.4 C 4.69 g/m*3 7.4 C 0 km/h
493 27-02-2008 02:35:04 7.3 C 4.66 g/m*3 7.3 C 0 km/h
494 27-02-2008 02:47:05 7.1 C 4.68 g/m*3 7.1 C 0 km/h
495 27-02-2008 02:59:05 6.9 C 4.77 g/m*3 6.9 C 0 km/h
496 27-02-2008 03:11:05 6.9 C 4.77 g/m*3 6.9 C 0 km/h
497 27-02-2008 03:23:05 6.9 C 4.62 g/m*3 6.9 C 0 km/h
498 27-02-2008 03:35:05 6.9 C 4.54 g/m*3 6.9 C 0 km/h
499 27-02-2008 03:47:05 7 C 4.42 g/m*3 7 C 0 km/h
500 27-02-2008 03:59:05 6.9 C 4.46 g/m*3 6.9 C 0 km/h
Sensor: Nr:Datum:Temp:Abs-Feuchte:Windchill:Wind:
Aussen-T/F 501 27-02-2008 04:11:05 6.9 C 4.54 g/m*3 6.9 C 0 km/h
502 27-02-2008 04:23:05 6.9 C 4.54 g/m*3 6.9 C 0 km/h
503 27-02-2008 04:35:05 6.9 C 4.54 g/m*3 6.9 C 0 km/h
504 27-02-2008 04:47:05 6.7 C 4.64 g/m*3 6.7 C 0 km/h
505 27-02-2008 04:59:05 6.4 C 4.69 g/m*3 6.4 C 0 km/h
506 27-02-2008 05:11:05 6.3 C 4.74 g/m*3 6.3 C 0 km/h
507 27-02-2008 05:23:05 6.2 C 4.78 g/m*3 6.2 C 0 km/h
508 27-02-2008 05:35:05 5.9 C 4.76 g/m*3 5.9 C 0 km/h
509 27-02-2008 05:47:05 5.9 C 4.76 g/m*3 5.9 C 0 km/h
510 27-02-2008 05:59:05 5.7 C 4.77 g/m*3 5.7 C 0 km/h
511 27-02-2008 06:11:05 5.4 C 4.81 g/m*3 5.4 C 0 km/h
512 27-02-2008 06:23:05 5.4 C 4.81 g/m*3 5.4 C 0 km/h
513 27-02-2008 06:35:05 5.6 C 4.81 g/m*3 5.6 C 0 km/h
514 27-02-2008 06:47:06 5.6 C 4.81 g/m*3 5.6 C 0 km/h
515 27-02-2008 06:59:06 5.6 C 4.81 g/m*3 5.6 C 0 km/h
516 27-02-2008 07:11:03 5.6 C 4.81 g/m*3 5.6 C 0 km/h
517 27-02-2008 07:23:02 5.4 C 4.81 g/m*3 5.4 C 0 km/h
518 27-02-2008 07:35:03 5.2 C 4.75 g/m*3 5.2 C 0 km/h
519 27-02-2008 07:47:03 5.1 C 4.79 g/m*3 5.1 C 0 km/h
520 27-02-2008 07:59:03 5.1 C 4.86 g/m*3 5.1 C 0 km/h
521 27-02-2008 08:11:02 5.2 C 4.82 g/m*3 5.2 C 0 km/h
522 27-02-2008 08:23:02 5.9 C 4.83 g/m*3 5.9 C 0 km/h
523 27-02-2008 08:35:03 6.3 C 4.66 g/m*3 6.3 C 0 km/h
524 27-02-2008 08:47:03 6.4 C 4.69 g/m*3 6.4 C 0 km/h
525 27-02-2008 08:59:03 6.8 C 4.82 g/m*3 6.8 C 0 km/h
Sensor: Nr:Datum:Temp:Abs-Feuchte:Windchill:Wind:
Aussen-T/F 526 27-02-2008 09:11:02 6.7 C 4.71 g/m*3 6.7 C 0 km/h
527 27-02-2008 09:23:02 6.8 C 4.74 g/m*3 6.8 C 0 km/h
528 27-02-2008 09:35:03 6.9 C 4.7 g/m*3 6.9 C 0 km/h
529 27-02-2008 09:47:02 7 C 4.65 g/m*3 7 C 0 km/h
530 27-02-2008 09:59:02 7.4 C 4.69 g/m*3 7.4 C 0 km/h
531 27-02-2008 10:11:02 7.5 C 4.64 g/m*3 7.5 C 0 km/h
532 27-02-2008 10:23:02 7.8 C 4.57 g/m*3 7.8 C 0 km/h
533 27-02-2008 10:35:02 8.5 C 4.53 g/m*3 8.5 C 0 km/h
534 27-02-2008 10:47:02 8.9 C 4.47 g/m*3 8.9 C 0 km/h
535 27-02-2008 10:59:02 8.8 C 4.35 g/m*3 8.8 C 0 km/h
536 27-02-2008 11:11:02 8.7 C 4.41 g/m*3 8.7 C 0 km/h
537 27-02-2008 11:23:02 8.9 C 4.38 g/m*3 8.9 C 0 km/h
538 27-02-2008 11:35:01 9 C 4.32 g/m*3 9 C 0 km/h
539 27-02-2008 11:47:01 9.2 C 4.38 g/m*3 9.2 C 0 km/h
540 27-02-2008 11:59:01 9.4 C 4.25 g/m*3 9.4 C 0 km/h
541 27-02-2008 12:11:02 9.8 C 4.18 g/m*3 9.8 C 0 km/h
542 27-02-2008 12:23:02 9.6 C 3.94 g/m*3 9.6 C 0 km/h
543 27-02-2008 12:35:01 9.8 C 4.18 g/m*3 9.8 C 0 km/h
544 27-02-2008 12:47:01 9.8 C 4.18 g/m*3 9.8 C 0 km/h
545 27-02-2008 12:59:01 10 C 4.04 g/m*3 10 C 0 km/h
546 27-02-2008 13:11:02 10.1 C 4.07 g/m*3 10.1 C 0 km/h
547 27-02-2008 13:23:01 10 C 3.85 g/m*3 10 C 0 km/h
548 27-02-2008 13:35:02 10 C 3.95 g/m*3 10 C 0 km/h
549 27-02-2008 13:47:03 10.4 C 3.86 g/m*3 10.4 C 0 km/h
550 27-02-2008 13:59:03 10.4 C 3.95 g/m*3 10.4 C 0 km/h
Sensor: Nr:Datum:Temp:Abs-Feuchte:Windchill:Wind:
Aussen-T/F 551 27-02-2008 14:11:02 10.1 C 3.97 g/m*3 10.1 C 0 km/h
552 27-02-2008 14:23:02 10.1 C 3.88 g/m*3 10.1 C 0 km/h
553 27-02-2008 14:35:03 10.1 C 3.88 g/m*3 10.1 C 0 km/h
554 27-02-2008 14:47:02 11.3 C 3.98 g/m*3 11.3 C 0 km/h
555 27-02-2008 14:59:02 10.9 C 3.98 g/m*3 10.9 C 0 km/h
556 27-02-2008 15:11:02 11.8 C 3.89 g/m*3 11.8 C 0 km/h
557 27-02-2008 15:23:02 11.2 C 3.75 g/m*3 11.2 C 0 km/h
558 27-02-2008 15:35:02 10.9 C 3.68 g/m*3 10.9 C 0 km/h
559 27-02-2008 15:47:02 11.1 C 3.73 g/m*3 11.1 C 0 km/h
560 27-02-2008 15:59:02 10.6 C 3.9 g/m*3 10.6 C 0 km/h
561 27-02-2008 16:11:02 10.7 C 3.83 g/m*3 10.7 C 0 km/h
562 27-02-2008 16:23:02 10.6 C 3.71 g/m*3 10.6 C 0 km/h
563 27-02-2008 16:35:02 10.8 C 3.66 g/m*3 10.8 C 0 km/h
564 27-02-2008 16:47:02 11 C 3.5 g/m*3 11 C 0 km/h
565 27-02-2008 16:59:02 10.7 C 3.54 g/m*3 10.7 C 0 km/h
566 27-02-2008 17:11:01 10.8 C 3.85 g/m*3 10.8 C 0 km/h
567 27-02-2008 17:23:02 10.6 C 3.71 g/m*3 10.6 C 0 km/h
568 27-02-2008 17:35:02 10.4 C 3.66 g/m*3 10.4 C 0 km/h
569 27-02-2008 17:47:02 10.1 C 3.69 g/m*3 10.1 C 0 km/h
570 27-02-2008 17:59:02 9.7 C 3.87 g/m*3 9.7 C 0 km/h
571 27-02-2008 18:11:01 9.3 C 4.04 g/m*3 9.3 C 0 km/h
572 27-02-2008 18:23:01 8.8 C 4.09 g/m*3 8.8 C 0 km/h
573 27-02-2008 18:35:02 8.6 C 4.04 g/m*3 8.6 C 0 km/h
574 27-02-2008 18:47:01 8.3 C 4.05 g/m*3 8.3 C 0 km/h
575 27-02-2008 18:59:01 7.9 C 4.11 g/m*3 7.9 C 0 km/h
Sensor: Nr:Datum:Temp:Abs-Feuchte:Windchill:Wind:
Aussen-T/F 576 27-02-2008 19:11:02 7.6 C 4.11 g/m*3 7.6 C 0 km/h
577 27-02-2008 19:23:01 7.3 C 4.03 g/m*3 7.3 C 0 km/h
578 27-02-2008 19:35:01 7.1 C 4.06 g/m*3 7.1 C 0 km/h
579 27-02-2008 19:47:01 6.9 C 4.08 g/m*3 6.9 C 0 km/h
580 27-02-2008 19:59:01 6.7 C 4.1 g/m*3 6.7 C 0 km/h
581 27-02-2008 20:11:02 6.6 C 4.08 g/m*3 6.6 C 0 km/h
582 27-02-2008 20:23:01 6.8 C 4.13 g/m*3 6.8 C 0 km/h
583 27-02-2008 20:35:01 6.6 C 4.15 g/m*3 6.6 C 0 km/h
584 27-02-2008 20:47:01 6.3 C 4.15 g/m*3 6.3 C 0 km/h
585 27-02-2008 20:59:01 6 C 4.14 g/m*3 6 C 0 km/h
586 27-02-2008 21:11:01 5.9 C 4.33 g/m*3 5.9 C 0 km/h
587 27-02-2008 21:23:02 5.8 C 4.37 g/m*3 5.8 C 0 km/h
588 27-02-2008 21:35:01 5.7 C 4.34 g/m*3 5.7 C 0 km/h
589 27-02-2008 21:47:02 5.7 C 4.34 g/m*3 5.7 C 0 km/h
590 27-02-2008 21:59:02 5.3 C 4.3 g/m*3 5.3 C 0 km/h
591 27-02-2008 22:11:02 5.1 C 4.31 g/m*3 5.1 C 0 km/h
592 27-02-2008 22:23:01 5 C 4.35 g/m*3 5 C 0 km/h
593 27-02-2008 22:35:02 5 C 4.35 g/m*3 5 C 0 km/h
594 27-02-2008 22:47:02 5 C 4.35 g/m*3 5 C 0 km/h
595 27-02-2008 22:59:02 5.1 C 4.38 g/m*3 5.1 C 0 km/h
596 27-02-2008 23:11:01 5.4 C 4.4 g/m*3 5.4 C 0 km/h
597 27-02-2008 23:24:02 5.5 C 4.42 g/m*3 5.5 C 0 km/h
598 27-02-2008 23:36:02 5.6 C 4.45 g/m*3 5.6 C 0 km/h
599 27-02-2008 23:48:02 5.7 C 4.41 g/m*3 5.7 C 0 km/h
600 28-02-2008 00:00:02 5.7 C 4.41 g/m*3 5.7 C 0 km/h
Sensor: Nr:Datum:Temp:Abs-Feuchte:Windchill:Wind:
Aussen-T/F 601 28-02-2008 00:12:02 5.7 C 4.48 g/m*3 5.7 C 0 km/h
602 28-02-2008 00:24:02 5.7 C 4.48 g/m*3 5.7 C 0 km/h
603 28-02-2008 00:36:02 5.8 C 4.51 g/m*3 5.8 C 0 km/h
604 28-02-2008 00:48:02 5.8 C 4.51 g/m*3 5.8 C 0 km/h
605 28-02-2008 01:00:02 5.8 C 4.51 g/m*3 5.8 C 0 km/h
606 28-02-2008 01:12:02 5.9 C 4.54 g/m*3 5.9 C 0 km/h
607 28-02-2008 01:24:03 6 C 4.5 g/m*3 6 C 0 km/h
608 28-02-2008 01:36:03 6 C 4.5 g/m*3 6 C 0 km/h
609 28-02-2008 01:48:03 5.9 C 4.54 g/m*3 5.9 C 0 km/h
610 28-02-2008 02:00:03 5.9 C 4.61 g/m*3 5.9 C 0 km/h
611 28-02-2008 02:12:03 5.8 C 4.58 g/m*3 5.8 C 0 km/h
612 28-02-2008 02:24:03 5.7 C 4.63 g/m*3 5.7 C 0 km/h
613 28-02-2008 02:36:03 5.3 C 4.57 g/m*3 5.3 C 0 km/h
614 28-02-2008 02:48:03 5 C 4.48 g/m*3 5 C 0 km/h
615 28-02-2008 03:00:03 4.9 C 4.59 g/m*3 4.9 C 0 km/h
616 28-02-2008 03:12:03 4.8 C 4.56 g/m*3 4.8 C 0 km/h
617 28-02-2008 03:24:03 4.7 C 4.53 g/m*3 4.7 C 0 km/h
618 28-02-2008 03:36:03 4.5 C 4.47 g/m*3 4.5 C 0 km/h
619 28-02-2008 03:48:03 4.4 C 4.51 g/m*3 4.4 C 0 km/h
620 28-02-2008 04:00:03 4 C 4.39 g/m*3 4 C 0 km/h
621 28-02-2008 04:12:03 3.9 C 4.48 g/m*3 3.9 C 0 km/h
622 28-02-2008 04:24:03 4.1 C 4.48 g/m*3 4.1 C 0 km/h
623 28-02-2008 04:36:03 4.2 C 4.57 g/m*3 4.2 C 0 km/h
624 28-02-2008 04:48:03 4.3 C 4.67 g/m*3 4.3 C 0 km/h
625 28-02-2008 05:00:03 4.4 C 4.7 g/m*3 4.4 C 0 km/h
Sensor: Nr:Datum:Temp:Abs-Feuchte:Windchill:Wind:
Aussen-T/F 626 28-02-2008 05:12:04 4.3 C 4.67 g/m*3 4.3 C 0 km/h
627 28-02-2008 05:24:04 4.5 C 4.73 g/m*3 4.5 C 0 km/h
628 28-02-2008 05:36:04 4.1 C 4.61 g/m*3 4.1 C 0 km/h
629 28-02-2008 05:48:04 4.3 C 4.67 g/m*3 4.3 C 0 km/h
630 28-02-2008 06:00:04 4.5 C 4.67 g/m*3 4.5 C 0 km/h
631 28-02-2008 06:12:04 4.4 C 4.57 g/m*3 4.4 C 0 km/h
632 28-02-2008 06:24:04 4.7 C 4.66 g/m*3 4.7 C 0 km/h
633 28-02-2008 06:36:04 4.8 C 4.56 g/m*3 4.8 C 0 km/h
634 28-02-2008 06:48:04 4.9 C 4.59 g/m*3 4.9 C 0 km/h
635 28-02-2008 07:00:04 4.9 C 4.66 g/m*3 4.9 C 0 km/h
636 28-02-2008 07:12:02 5 C 4.55 g/m*3 5 C 0 km/h
637 28-02-2008 07:24:02 5.1 C 4.58 g/m*3 5.1 C 0 km/h
638 28-02-2008 07:36:01 5.2 C 4.54 g/m*3 5.2 C 0 km/h
639 28-02-2008 07:48:02 5.1 C 4.58 g/m*3 5.1 C 0 km/h
640 28-02-2008 08:00:02 5.3 C 4.64 g/m*3 5.3 C 0 km/h
641 28-02-2008 08:12:02 5.5 C 4.64 g/m*3 5.5 C 0 km/h
642 28-02-2008 08:24:02 5.6 C 4.67 g/m*3 5.6 C 0 km/h
643 28-02-2008 08:36:02 5.8 C 4.66 g/m*3 5.8 C 0 km/h
644 28-02-2008 08:48:02 5.8 C 4.73 g/m*3 5.8 C 0 km/h
645 28-02-2008 09:00:02 5.9 C 4.69 g/m*3 5.9 C 0 km/h
646 28-02-2008 09:12:02 6 C 4.65 g/m*3 6 C 0 km/h
647 28-02-2008 09:24:01 6.2 C 4.56 g/m*3 6.2 C 0 km/h
648 28-02-2008 09:36:01 6.6 C 4.6 g/m*3 6.6 C 0 km/h
649 28-02-2008 09:48:01 6.9 C 4.7 g/m*3 6.9 C 0 km/h
650 28-02-2008 10:00:01 7.1 C 4.6 g/m*3 7.1 C 0 km/h
Sensor: Nr:Datum:Temp:Abs-Feuchte:Windchill:Wind:
Aussen-T/F 651 28-02-2008 10:12:02 7.4 C 4.61 g/m*3 7.4 C 0 km/h
652 28-02-2008 10:24:01 7.6 C 4.59 g/m*3 7.6 C 0 km/h
653 28-02-2008 10:36:01 8 C 4.55 g/m*3 8 C 0 km/h
654 28-02-2008 10:48:01 8.2 C 4.61 g/m*3 8.2 C 0 km/h
655 28-02-2008 11:00:01 8.5 C 4.53 g/m*3 8.5 C 0 km/h
656 28-02-2008 11:12:01 9 C 4.58 g/m*3 9 C 0 km/h
657 28-02-2008 11:24:02 9.3 C 4.22 g/m*3 9.3 C 0 km/h
658 28-02-2008 11:36:01 9.3 C 4.04 g/m*3 9.3 C 0 km/h
659 28-02-2008 11:48:02 9.6 C 3.76 g/m*3 9.6 C 0 km/h
660 28-02-2008 12:00:02 9.8 C 3.34 g/m*3 9.8 C 0 km/h
661 28-02-2008 12:12:02 9.8 C 2.97 g/m*3 9.8 C 0 km/h
662 28-02-2008 12:24:02 10 C 3.01 g/m*3 10 C 0 km/h
663 28-02-2008 12:36:01 10.3 C 3.06 g/m*3 10.3 C 0 km/h
664 28-02-2008 12:48:01 10.8 C 3.06 g/m*3 10.8 C 0 km/h
665 28-02-2008 13:00:01 11 C 2.9 g/m*3 11 C 0 km/h
666 28-02-2008 13:12:02 11.2 C 2.94 g/m*3 11.2 C 0 km/h
667 28-02-2008 13:24:02 11.4 C 3.08 g/m*3 11.4 C 0 km/h
668 28-02-2008 13:36:02 11.6 C 3.01 g/m*3 11.6 C 0 km/h
669 28-02-2008 13:48:02 11.5 C 3 g/m*3 11.5 C 0 km/h
670 28-02-2008 14:00:02 11.7 C 3.14 g/m*3 11.7 C 0 km/h
671 28-02-2008 14:12:02 11.8 C 3.16 g/m*3 11.8 C 0 km/h
672 28-02-2008 14:24:02 11.8 C 3.05 g/m*3 11.8 C 0 km/h
673 28-02-2008 14:36:02 11.8 C 3.05 g/m*3 11.8 C 0 km/h
674 28-02-2008 14:48:02 12.2 C 3.13 g/m*3 12.2 C 0 km/h
675 28-02-2008 15:00:02 12.4 C 3.06 g/m*3 12.4 C 0 km/h
Sensor: Nr:Datum:Temp:Abs-Feuchte:Windchill:Wind:
Aussen-T/F 676 28-02-2008 15:12:02 12.4 C 3.06 g/m*3 12.4 C 0 km/h
677 28-02-2008 15:24:02 12.3 C 3.15 g/m*3 12.3 C 0 km/h
678 28-02-2008 15:36:01 11.9 C 3.28 g/m*3 11.9 C 0 km/h
679 28-02-2008 15:48:01 11.8 C 3.26 g/m*3 11.8 C 0 km/h
680 28-02-2008 16:00:01 11.7 C 3.35 g/m*3 11.7 C 0 km/h
681 28-02-2008 16:12:02 11.7 C 3.35 g/m*3 11.7 C 0 km/h
682 28-02-2008 16:24:02 11.8 C 3.37 g/m*3 11.8 C 0 km/h
683 28-02-2008 16:36:02 11.7 C 3.45 g/m*3 11.7 C 0 km/h
684 28-02-2008 16:48:02 11.4 C 3.49 g/m*3 11.4 C 0 km/h
685 28-02-2008 17:00:02 11.4 C 3.59 g/m*3 11.4 C 0 km/h
686 28-02-2008 17:12:02 11.3 C 3.57 g/m*3 11.3 C 0 km/h
687 28-02-2008 17:24:02 11.2 C 3.65 g/m*3 11.2 C 0 km/h
688 28-02-2008 17:36:02 11.1 C 3.63 g/m*3 11.1 C 0 km/h
689 28-02-2008 17:48:02 10.7 C 4.22 g/m*3 10.7 C 0 km/h
690 28-02-2008 18:00:02 10 C 4.79 g/m*3 10 C 0 km/h
691 28-02-2008 18:12:02 9.1 C 5.23 g/m*3 9.1 C 0 km/h
692 28-02-2008 18:24:02 8.7 C 5.36 g/m*3 8.7 C 0 km/h
693 28-02-2008 18:36:01 8.5 C 5.64 g/m*3 8.5 C 0 km/h
694 28-02-2008 18:48:01 8.2 C 5.78 g/m*3 8.2 C 0 km/h
695 28-02-2008 19:00:01 7.9 C 6.16 g/m*3 7.9 C 0 km/h
696 28-02-2008 19:12:02 7.5 C 6.32 g/m*3 7.5 C 0 km/h
697 28-02-2008 19:24:02 7.5 C 6.56 g/m*3 7.5 C 0 km/h
698 28-02-2008 19:36:02 7.5 C 6.72 g/m*3 7.5 C 0 km/h
699 28-02-2008 19:48:02 7.5 C 6.72 g/m*3 7.5 C 0 km/h
700 28-02-2008 20:00:02 7.7 C 6.81 g/m*3 7.7 C 0 km/h
Sensor: Nr:Datum:Temp:Abs-Feuchte:Windchill:Wind:
Aussen-T/F 701 28-02-2008 20:12:02 7.5 C 6.8 g/m*3 7.5 C 0 km/h
702 28-02-2008 20:24:02 7.6 C 6.93 g/m*3 7.6 C 0 km/h
703 28-02-2008 20:36:02 7.5 C 6.96 g/m*3 7.5 C 0 km/h
704 28-02-2008 20:48:01 7.5 C 6.96 g/m*3 7.5 C 0 km/h
705 28-02-2008 21:00:01 7.4 C 6.92 g/m*3 7.4 C 0 km/h
706 28-02-2008 21:12:01 7.4 C 7 g/m*3 7.4 C 0 km/h
707 28-02-2008 21:24:01 7.3 C 6.95 g/m*3 7.3 C 0 km/h
708 28-02-2008 21:36:02 7.3 C 6.95 g/m*3 7.3 C 0 km/h
709 28-02-2008 21:48:02 7.2 C 6.99 g/m*3 7.2 C 0 km/h
710 28-02-2008 22:00:02 7.2 C 6.99 g/m*3 7.2 C 0 km/h
711 28-02-2008 22:12:02 7.2 C 6.99 g/m*3 7.2 C 0 km/h
712 28-02-2008 22:24:02 7.2 C 6.99 g/m*3 7.2 C 0 km/h
713 28-02-2008 22:36:03 7.2 C 7.06 g/m*3 7.2 C 0 km/h
714 28-02-2008 22:49:04 7.2 C 7.06 g/m*3 7.2 C 0 km/h
715 28-02-2008 23:01:04 7.2 C 7.06 g/m*3 7.2 C 0 km/h
716 28-02-2008 23:13:04 7.1 C 7.02 g/m*3 7.1 C 0 km/h
717 28-02-2008 23:25:04 7.1 C 7.02 g/m*3 7.1 C 0 km/h
718 28-02-2008 23:37:04 7.1 C 7.02 g/m*3 7.1 C 0 km/h
719 28-02-2008 23:49:04 7.1 C 7.1 g/m*3 7.1 C 0 km/h
720 29-02-2008 00:01:04 7.2 C 7.14 g/m*3 7.2 C 0 km/h
721 29-02-2008 00:13:04 7.1 C 7.1 g/m*3 7.1 C 0 km/h
722 29-02-2008 00:25:04 7 C 7.05 g/m*3 7 C 0 km/h
723 29-02-2008 00:37:04 7 C 7.05 g/m*3 7 C 0 km/h
724 29-02-2008 00:49:04 7 C 7.05 g/m*3 7 C 0 km/h
725 29-02-2008 01:01:04 6.8 C 7.04 g/m*3 6.8 C 0 km/h
Sensor: Nr:Datum:Temp:Abs-Feuchte:Windchill:Wind:
Aussen-T/F 726 29-02-2008 01:13:05 6.9 C 7.16 g/m*3 6.9 C 0 km/h
727 29-02-2008 01:25:05 6.9 C 7.16 g/m*3 6.9 C 0 km/h
728 29-02-2008 01:37:05 7 C 7.13 g/m*3 7 C 0 km/h
729 29-02-2008 01:49:05 7 C 7.21 g/m*3 7 C 0 km/h
730 29-02-2008 02:01:05 7 C 7.21 g/m*3 7 C 0 km/h
731 29-02-2008 02:13:05 7 C 7.21 g/m*3 7 C 0 km/h
732 29-02-2008 02:25:05 7 C 7.21 g/m*3 7 C 0 km/h
733 29-02-2008 02:37:05 7.1 C 7.25 g/m*3 7.1 C 0 km/h
734 29-02-2008 02:49:05 7.1 C 7.25 g/m*3 7.1 C 0 km/h
735 29-02-2008 03:01:05 7.1 C 7.25 g/m*3 7.1 C 0 km/h
736 29-02-2008 03:13:05 7.1 C 7.25 g/m*3 7.1 C 0 km/h
737 29-02-2008 03:25:05 7 C 7.21 g/m*3 7 C 0 km/h
738 29-02-2008 03:37:05 7 C 7.21 g/m*3 7 C 0 km/h
739 29-02-2008 03:49:05 7 C 7.21 g/m*3 7 C 0 km/h
740 29-02-2008 04:01:05 7 C 7.21 g/m*3 7 C 0 km/h
741 29-02-2008 04:13:05 6.9 C 7.24 g/m*3 6.9 C 0 km/h
742 29-02-2008 04:25:05 6.9 C 7.24 g/m*3 6.9 C 0 km/h
743 29-02-2008 04:37:05 7 C 7.28 g/m*3 7 C 0 km/h
744 29-02-2008 04:49:05 7 C 7.28 g/m*3 7 C 0 km/h
745 29-02-2008 05:01:06 6.9 C 7.24 g/m*3 6.9 C 0 km/h
746 29-02-2008 05:13:06 6.9 C 7.31 g/m*3 6.9 C 0 km/h
747 29-02-2008 05:25:06 7 C 7.28 g/m*3 7 C 0 km/h
748 29-02-2008 05:37:06 7 C 7.28 g/m*3 7 C 0 km/h
749 29-02-2008 05:49:06 7.1 C 7.33 g/m*3 7.1 C 0 km/h
750 29-02-2008 06:01:06 7.1 C 7.33 g/m*3 7.1 C 0 km/h
Sensor: Nr:Datum:Temp:Abs-Feuchte:Windchill:Wind:
Aussen-T/F 751 29-02-2008 06:13:06 7.1 C 7.33 g/m*3 7.1 C 0 km/h
752 29-02-2008 06:25:06 7.1 C 7.41 g/m*3 7.1 C 0 km/h
753 29-02-2008 06:37:06 7.1 C 7.41 g/m*3 7.1 C 0 km/h
754 29-02-2008 06:49:01 7.1 C 7.41 g/m*3 7.1 C 0 km/h
755 29-02-2008 07:01:02 7.1 C 7.41 g/m*3 7.1 C 0 km/h
756 29-02-2008 07:13:02 7 C 7.36 g/m*3 7 C 0 km/h
757 29-02-2008 07:25:01 7.1 C 7.41 g/m*3 7.1 C 0 km/h
758 29-02-2008 07:37:01 7.2 C 7.46 g/m*3 7.2 C 0 km/h
759 29-02-2008 07:49:01 7.3 C 7.51 g/m*3 7.3 C 0 km/h
760 29-02-2008 08:01:02 7.4 C 7.55 g/m*3 7.4 C 0 km/h
761 29-02-2008 08:13:02 7.3 C 7.51 g/m*3 7.3 C 0 km/h
762 29-02-2008 08:25:01 7.4 C 7.55 g/m*3 7.4 C 0 km/h
763 29-02-2008 08:37:01 7.4 C 7.55 g/m*3 7.4 C 0 km/h
764 29-02-2008 08:49:02 7.4 C 7.55 g/m*3 7.4 C 0 km/h
765 29-02-2008 09:01:02 7.4 C 7.55 g/m*3 7.4 C 0 km/h
766 29-02-2008 09:13:03 7.4 C 7.55 g/m*3 7.4 C 0 km/h
767 29-02-2008 09:25:02 7.8 C 7.75 g/m*3 7.8 C 0 km/h
768 29-02-2008 09:37:03 7.8 C 7.75 g/m*3 7.8 C 0 km/h
769 29-02-2008 09:49:02 7.7 C 7.7 g/m*3 7.7 C 0 km/h
770 29-02-2008 10:01:02 7.9 C 7.8 g/m*3 7.9 C 0 km/h
771 29-02-2008 10:13:02 8 C 7.85 g/m*3 8 C 0 km/h
772 29-02-2008 10:25:02 8.3 C 8.01 g/m*3 8.3 C 0 km/h
773 29-02-2008 10:37:02 8.6 C 8.16 g/m*3 8.6 C 0 km/h
774 29-02-2008 10:49:02 8.8 C 8.27 g/m*3 8.8 C 0 km/h
775 29-02-2008 11:01:02 8.8 C 8.27 g/m*3 8.8 C 0 km/h
Sensor: Nr:Datum:Temp:Abs-Feuchte:Windchill:Wind:
Aussen-T/F 776 29-02-2008 11:13:02 9 C 8.38 g/m*3 9 C 0 km/h
777 29-02-2008 11:25:01 9.1 C 8.43 g/m*3 9.1 C 0 km/h
778 29-02-2008 11:37:02 9.1 C 8.43 g/m*3 9.1 C 0 km/h
779 29-02-2008 11:49:02 9.1 C 8.43 g/m*3 9.1 C 0 km/h
780 29-02-2008 12:01:01 9.5 C 8.65 g/m*3 9.5 C 0 km/h
781 29-02-2008 12:13:01 9.8 C 8.81 g/m*3 9.8 C 0 km/h
782 29-02-2008 12:25:01 10 C 8.83 g/m*3 10 C 0 km/h
783 29-02-2008 12:37:02 9.9 C 8.78 g/m*3 9.9 C 0 km/h
784 29-02-2008 12:49:02 10.2 C 8.85 g/m*3 10.2 C 0 km/h
785 29-02-2008 13:01:02 10 C 8.64 g/m*3 10 C 0 km/h
786 29-02-2008 13:13:02 9.9 C 8.68 g/m*3 9.9 C 0 km/h
787 29-02-2008 13:25:02 10 C 8.64 g/m*3 10 C 0 km/h
788 29-02-2008 13:37:02 10.2 C 8.76 g/m*3 10.2 C 0 km/h
789 29-02-2008 13:49:02 10.6 C 8.88 g/m*3 10.6 C 0 km/h
790 29-02-2008 14:01:02 11 C 9.01 g/m*3 11 C 0 km/h
791 29-02-2008 14:13:02 11.1 C 8.86 g/m*3 11.1 C 0 km/h
792 29-02-2008 14:25:01 11.1 C 8.46 g/m*3 11.1 C 0 km/h
793 29-02-2008 14:37:02 11.1 C 8.26 g/m*3 11.1 C 0 km/h
794 29-02-2008 14:49:02 11 C 8.11 g/m*3 11 C 0 km/h
795 29-02-2008 15:01:03 10.9 C 6.86 g/m*3 10.9 C 0 km/h
796 29-02-2008 15:13:03 10.8 C 6.23 g/m*3 10.8 C 0 km/h
797 29-02-2008 15:25:02 10.7 C 6.09 g/m*3 10.7 C 0 km/h
798 29-02-2008 15:37:02 10.7 C 6.09 g/m*3 10.7 C 0 km/h
799 29-02-2008 15:49:01 10.7 C 5.89 g/m*3 10.7 C 0 km/h
800 29-02-2008 16:01:02 10.8 C 5.83 g/m*3 10.8 C 0 km/h
Sensor: Nr:Datum:Temp:Abs-Feuchte:Windchill:Wind:
Aussen-T/F 801 29-02-2008 16:13:02 10.8 C 5.83 g/m*3 10.8 C 0 km/h
802 29-02-2008 16:25:02 10.6 C 5.56 g/m*3 10.6 C 0 km/h
803 29-02-2008 16:37:01 10.5 C 5.63 g/m*3 10.5 C 0 km/h
804 29-02-2008 16:49:01 10.5 C 5.53 g/m*3 10.5 C 0 km/h
805 29-02-2008 17:01:02 10.4 C 5.49 g/m*3 10.4 C 0 km/h
806 29-02-2008 17:13:02 10.4 C 5.49 g/m*3 10.4 C 0 km/h
807 29-02-2008 17:25:02 10.3 C 5.55 g/m*3 10.3 C 0 km/h
808 29-02-2008 17:37:02 10.2 C 5.61 g/m*3 10.2 C 0 km/h
809 29-02-2008 17:49:02 10.2 C 5.61 g/m*3 10.2 C 0 km/h
810 29-02-2008 18:01:02 10.1 C 5.77 g/m*3 10.1 C 0 km/h
811 29-02-2008 18:13:02 9.9 C 5.88 g/m*3 9.9 C 0 km/h
812 29-02-2008 18:25:02 9.8 C 5.94 g/m*3 9.8 C 0 km/h
813 29-02-2008 18:37:02 9.8 C 6.12 g/m*3 9.8 C 0 km/h
814 29-02-2008 18:49:02 9.7 C 5.99 g/m*3 9.7 C 0 km/h
815 29-02-2008 19:01:02 9.6 C 6.05 g/m*3 9.6 C 0 km/h
816 29-02-2008 19:13:02 9.6 C 6.14 g/m*3 9.6 C 0 km/h
817 29-02-2008 19:25:02 9.6 C 6.14 g/m*3 9.6 C 0 km/h
818 29-02-2008 19:37:02 9.5 C 6.28 g/m*3 9.5 C 0 km/h
819 29-02-2008 19:49:02 9.5 C 6.37 g/m*3 9.5 C 0 km/h
820 29-02-2008 20:01:02 9.5 C 6.37 g/m*3 9.5 C 0 km/h
821 29-02-2008 20:13:02 9.5 C 6.37 g/m*3 9.5 C 0 km/h
822 29-02-2008 20:25:02 9.6 C 6.5 g/m*3 9.6 C 0 km/h
823 29-02-2008 20:37:02 9.6 C 6.5 g/m*3 9.6 C 0 km/h
824 29-02-2008 20:49:02 9.7 C 6.55 g/m*3 9.7 C 0 km/h
825 29-02-2008 21:01:02 9.8 C 6.49 g/m*3 9.8 C 0 km/h
Sensor: Nr:Datum:Temp:Abs-Feuchte:Windchill:Wind:
Aussen-T/F 826 29-02-2008 21:13:02 10 C 6.39 g/m*3 10 C 0 km/h
827 29-02-2008 21:25:03 10.2 C 6.38 g/m*3 10.2 C 0 km/h
828 29-02-2008 21:37:02 10.3 C 6.32 g/m*3 10.3 C 0 km/h
829 29-02-2008 21:49:01 10.3 C 6.42 g/m*3 10.3 C 0 km/h
830 29-02-2008 22:01:01 10.4 C 6.26 g/m*3 10.4 C 0 km/h
831 29-02-2008 22:13:01 10.3 C 6.22 g/m*3 10.3 C 0 km/h
832 29-02-2008 22:25:02 10.2 C 6.09 g/m*3 10.2 C 0 km/h
833 29-02-2008 22:37:02 10 C 6.11 g/m*3 10 C 0 km/h
834 29-02-2008 22:49:02 9.9 C 6.26 g/m*3 9.9 C 0 km/h
835 29-02-2008 23:01:02 9.9 C 6.26 g/m*3 9.9 C 0 km/h
836 29-02-2008 23:13:02 9.8 C 6.03 g/m*3 9.8 C 0 km/h
837 29-02-2008 23:25:02 9.7 C 5.99 g/m*3 9.7 C 0 km/h
838 29-02-2008 23:37:02 9.5 C 6.01 g/m*3 9.5 C 0 km/h
839 29-02-2008 23:49:01 9.4 C 6.15 g/m*3 9.4 C 0 km/h
840 01-03-2008 00:01:01 9.2 C 6.25 g/m*3 9.2 C 0 km/h
841 01-03-2008 00:13:01 9.2 C 6.43 g/m*3 9.2 C 0 km/h
842 01-03-2008 00:25:01 9.3 C 6.47 g/m*3 9.3 C 0 km/h
843 01-03-2008 00:37:01 9.4 C 6.6 g/m*3 9.4 C 0 km/h
844 01-03-2008 00:49:01 9.6 C 6.5 g/m*3 9.6 C 0 km/h
845 01-03-2008 01:01:02 9.6 C 6.5 g/m*3 9.6 C 0 km/h
846 01-03-2008 01:13:02 9.6 C 6.6 g/m*3 9.6 C 0 km/h
847 01-03-2008 01:25:01 9.8 C 6.68 g/m*3 9.8 C 0 km/h
848 01-03-2008 01:37:01 9.9 C 6.72 g/m*3 9.9 C 0 km/h
849 01-03-2008 01:49:01 10.1 C 6.62 g/m*3 10.1 C 0 km/h
850 01-03-2008 02:01:02 10.2 C 6.76 g/m*3 10.2 C 0 km/h
Sensor: Nr:Datum:Temp:Abs-Feuchte:Windchill:Wind:
Aussen-T/F 851 01-03-2008 02:13:02 10.3 C 6.9 g/m*3 10.3 C 0 km/h
852 01-03-2008 02:25:01 10.1 C 7.09 g/m*3 10.1 C 0 km/h
853 01-03-2008 02:37:01 10.2 C 7.04 g/m*3 10.2 C 0 km/h
854 01-03-2008 02:50:02 10.3 C 7.09 g/m*3 10.3 C 0 km/h
855 01-03-2008 03:02:02 10.3 C 7.09 g/m*3 10.3 C 0 km/h
856 01-03-2008 03:14:03 10.2 C 7.04 g/m*3 10.2 C 0 km/h
857 01-03-2008 03:26:03 10 C 7.14 g/m*3 10 C 0 km/h
858 01-03-2008 03:38:01 10.1 C 7.19 g/m*3 10.1 C 0 km/h
859 01-03-2008 03:50:01 10 C 7.05 g/m*3 10 C 0 km/h
860 01-03-2008 04:02:02 10 C 7.14 g/m*3 10 C 0 km/h
861 01-03-2008 04:14:02 10 C 7.05 g/m*3 10 C 0 km/h
862 01-03-2008 04:26:02 10.1 C 7 g/m*3 10.1 C 0 km/h
863 01-03-2008 04:38:01 9.9 C 7.19 g/m*3 9.9 C 0 km/h
864 01-03-2008 04:50:01 9.8 C 7.42 g/m*3 9.8 C 0 km/h
865 01-03-2008 05:02:02 9.8 C 7.42 g/m*3 9.8 C 0 km/h
866 01-03-2008 05:14:02 9.9 C 7.47 g/m*3 9.9 C 0 km/h
867 01-03-2008 05:26:02 9.9 C 7.56 g/m*3 9.9 C 0 km/h
868 01-03-2008 05:38:01 10 C 7.42 g/m*3 10 C 0 km/h
869 01-03-2008 05:50:02 10 C 7.42 g/m*3 10 C 0 km/h
870 01-03-2008 06:02:02 10 C 7.71 g/m*3 10 C 0 km/h
871 01-03-2008 06:14:02 9.6 C 7.79 g/m*3 9.6 C 0 km/h
872 01-03-2008 06:26:01 10.1 C 7.47 g/m*3 10.1 C 0 km/h
873 01-03-2008 06:38:02 10.7 C 6.97 g/m*3 10.7 C 0 km/h
874 01-03-2008 06:50:53 11.1 C 6.55 g/m*3 11.1 C 0 km/h
875 01-03-2008 07:02:53 7 C 5.5 g/m*3 7 C 0 km/h
Sensor: Nr:Datum:Temp:Abs-Feuchte:Windchill:Wind:
Aussen-T/F 876 01-03-2008 07:14:53 5.8 C 5.8 g/m*3 5.8 C 0 km/h
877 01-03-2008 07:26:53 6.1 C 5.84 g/m*3 6.1 C 0 km/h
878 01-03-2008 07:38:53 6.6 C 5.28 g/m*3 6.6 C 0 km/h
879 01-03-2008 07:50:53 7.1 C 4.76 g/m*3 7.1 C 0 km/h
880 01-03-2008 08:02:03 7.4 C 4.69 g/m*3 7.4 C 0 km/h
881 01-03-2008 08:14:03 7.7 C 4.62 g/m*3 7.7 C 0 km/h
882 01-03-2008 08:26:03 7.9 C 4.52 g/m*3 7.9 C 0 km/h
883 01-03-2008 08:38:02 8.2 C 4.35 g/m*3 8.2 C 0 km/h
884 01-03-2008 08:50:02 8.5 C 4.27 g/m*3 8.5 C 0 km/h
885 01-03-2008 09:02:02 8.5 C 4.18 g/m*3 8.5 C 0 km/h
886 01-03-2008 09:14:02 8.6 C 3.87 g/m*3 8.6 C 0 km/h
887 01-03-2008 09:26:02 8.7 C 3.89 g/m*3 8.7 C 0 km/h
888 01-03-2008 09:38:02 9 C 3.61 g/m*3 9 C 0 km/h
889 01-03-2008 09:50:02 9 C 3.7 g/m*3 9 C 0 km/h
890 01-03-2008 10:02:02 9.2 C 3.75 g/m*3 9.2 C 0 km/h
891 01-03-2008 10:14:02 9.2 C 3.75 g/m*3 9.2 C 0 km/h
892 01-03-2008 10:26:01 9.3 C 3.77 g/m*3 9.3 C 0 km/h
893 01-03-2008 10:38:01 9.2 C 3.75 g/m*3 9.2 C 0 km/h
894 01-03-2008 10:50:02 9.1 C 3.73 g/m*3 9.1 C 0 km/h
895 01-03-2008 11:02:01 9.2 C 3.75 g/m*3 9.2 C 0 km/h
896 01-03-2008 11:14:01 9.2 C 3.75 g/m*3 9.2 C 0 km/h
897 01-03-2008 11:26:01 9.1 C 3.9 g/m*3 9.1 C 0 km/h
898 01-03-2008 11:38:02 9.2 C 3.93 g/m*3 9.2 C 0 km/h
899 01-03-2008 11:50:01 9.3 C 3.95 g/m*3 9.3 C 0 km/h
900 01-03-2008 12:02:02 9.3 C 4.13 g/m*3 9.3 C 0 km/h
Sensor: Nr:Datum:Temp:Abs-Feuchte:Windchill:Wind:
Aussen-T/F 901 01-03-2008 12:14:02 9.4 C 4.16 g/m*3 9.4 C 0 km/h
902 01-03-2008 12:26:02 9.4 C 4.07 g/m*3 9.4 C 0 km/h
903 01-03-2008 12:38:01 9.5 C 4.01 g/m*3 9.5 C 0 km/h
904 01-03-2008 12:50:02 9.4 C 4.07 g/m*3 9.4 C 0 km/h
905 01-03-2008 13:02:01 9.3 C 4.13 g/m*3 9.3 C 0 km/h
906 01-03-2008 13:14:01 9.2 C 4.11 g/m*3 9.2 C 0 km/h
907 01-03-2008 13:26:01 9.1 C 4.17 g/m*3 9.1 C 0 km/h
908 01-03-2008 13:38:02 9.2 C 4.11 g/m*3 9.2 C 0 km/h
909 01-03-2008 13:50:01 9.3 C 4.04 g/m*3 9.3 C 0 km/h
910 01-03-2008 14:02:02 9.6 C 4.12 g/m*3 9.6 C 0 km/h
911 01-03-2008 14:14:02 9.7 C 3.96 g/m*3 9.7 C 0 km/h
912 01-03-2008 14:26:02 9.9 C 3.92 g/m*3 9.9 C 0 km/h
913 01-03-2008 14:38:01 10.4 C 3.86 g/m*3 10.4 C 0 km/h
914 01-03-2008 14:50:02 11.1 C 3.63 g/m*3 11.1 C 0 km/h
915 01-03-2008 15:02:01 11.3 C 3.57 g/m*3 11.3 C 0 km/h
916 01-03-2008 15:14:01 11.5 C 3.41 g/m*3 11.5 C 0 km/h
917 01-03-2008 15:26:01 11.3 C 3.26 g/m*3 11.3 C 0 km/h
918 01-03-2008 15:38:02 11.5 C 3.31 g/m*3 11.5 C 0 km/h
919 01-03-2008 15:50:02 11.3 C 3.06 g/m*3 11.3 C 0 km/h
920 01-03-2008 16:02:02 11.4 C 2.98 g/m*3 11.4 C 0 km/h
921 01-03-2008 16:14:02 11.5 C 2.89 g/m*3 11.5 C 0 km/h
922 01-03-2008 16:26:02 11.1 C 2.82 g/m*3 11.1 C 0 km/h
923 01-03-2008 16:38:03 10.8 C 2.87 g/m*3 10.8 C 0 km/h
924 01-03-2008 16:50:01 10.6 C 2.93 g/m*3 10.6 C 0 km/h
925 01-03-2008 17:02:02 10.7 C 3.04 g/m*3 10.7 C 0 km/h
Sensor: Nr:Datum:Temp:Abs-Feuchte:Windchill:Wind:
Aussen-T/F 926 01-03-2008 17:14:02 10.8 C 2.97 g/m*3 10.8 C 0 km/h
927 01-03-2008 17:26:02 10.5 C 3.01 g/m*3 10.5 C 0 km/h
928 01-03-2008 17:38:01 10.4 C 2.99 g/m*3 10.4 C 0 km/h
929 01-03-2008 17:50:02 10.1 C 3.22 g/m*3 10.1 C 0 km/h
930 01-03-2008 18:02:02 10 C 3.29 g/m*3 10 C 0 km/h
931 01-03-2008 18:14:02 9.8 C 3.34 g/m*3 9.8 C 0 km/h
932 01-03-2008 18:26:02 9.7 C 3.5 g/m*3 9.7 C 0 km/h
933 01-03-2008 18:38:02 9.6 C 3.48 g/m*3 9.6 C 0 km/h
934 01-03-2008 18:50:02 9.5 C 3.55 g/m*3 9.5 C 0 km/h
935 01-03-2008 19:02:02 9.5 C 3.55 g/m*3 9.5 C 0 km/h
936 01-03-2008 19:14:02 9.3 C 3.59 g/m*3 9.3 C 0 km/h
937 01-03-2008 19:26:02 9.3 C 3.59 g/m*3 9.3 C 0 km/h
938 01-03-2008 19:38:01 9.3 C 3.68 g/m*3 9.3 C 0 km/h
939 01-03-2008 19:50:02 9.2 C 3.75 g/m*3 9.2 C 0 km/h
940 01-03-2008 20:02:01 8.6 C 4.3 g/m*3 8.6 C 0 km/h
941 01-03-2008 20:14:01 8.4 C 4.41 g/m*3 8.4 C 0 km/h
942 01-03-2008 20:26:02 8.6 C 4.38 g/m*3 8.6 C 0 km/h
943 01-03-2008 20:38:02 8.8 C 4.35 g/m*3 8.8 C 0 km/h
944 01-03-2008 20:50:02 8.9 C 4.38 g/m*3 8.9 C 0 km/h
945 01-03-2008 21:02:01 8.9 C 4.47 g/m*3 8.9 C 0 km/h
946 01-03-2008 21:14:01 8.9 C 4.38 g/m*3 8.9 C 0 km/h
947 01-03-2008 21:26:01 9 C 4.32 g/m*3 9 C 0 km/h
948 01-03-2008 21:38:02 9 C 4.32 g/m*3 9 C 0 km/h
949 01-03-2008 21:50:02 8.9 C 4.29 g/m*3 8.9 C 0 km/h
950 01-03-2008 22:02:02 8.8 C 4.35 g/m*3 8.8 C 0 km/h
Sensor: Nr:Datum:Temp:Abs-Feuchte:Windchill:Wind:
Aussen-T/F 951 01-03-2008 22:14:02 8.7 C 4.41 g/m*3 8.7 C 0 km/h
952 01-03-2008 22:26:02 8.7 C 4.41 g/m*3 8.7 C 0 km/h
953 01-03-2008 22:38:03 8.9 C 4.29 g/m*3 8.9 C 0 km/h
954 01-03-2008 22:50:02 8.9 C 4.2 g/m*3 8.9 C 0 km/h
955 01-03-2008 23:02:02 8.9 C 4.2 g/m*3 8.9 C 0 km/h
956 01-03-2008 23:14:03 8.8 C 4.09 g/m*3 8.8 C 0 km/h
957 01-03-2008 23:26:02 8.7 C 4.06 g/m*3 8.7 C 0 km/h
958 01-03-2008 23:38:01 8.8 C 4 g/m*3 8.8 C 0 km/h
959 01-03-2008 23:50:01 8.7 C 4.06 g/m*3 8.7 C 0 km/h
960 02-03-2008 00:02:02 8.7 C 4.06 g/m*3 8.7 C 0 km/h
961 02-03-2008 00:14:02 8.7 C 3.98 g/m*3 8.7 C 0 km/h
962 02-03-2008 00:27:04 8.7 C 4.06 g/m*3 8.7 C 0 km/h
963 02-03-2008 00:39:04 8.6 C 4.04 g/m*3 8.6 C 0 km/h
964 02-03-2008 00:51:04 8.5 C 4.1 g/m*3 8.5 C 0 km/h
965 02-03-2008 01:03:04 8.5 C 4.1 g/m*3 8.5 C 0 km/h
966 02-03-2008 01:15:04 8.5 C 4.18 g/m*3 8.5 C 0 km/h
967 02-03-2008 01:27:04 8.6 C 4.12 g/m*3 8.6 C 0 km/h
968 02-03-2008 01:39:05 8.6 C 4.21 g/m*3 8.6 C 0 km/h
969 02-03-2008 01:51:05 8.6 C 4.21 g/m*3 8.6 C 0 km/h
970 02-03-2008 02:03:05 8.7 C 4.24 g/m*3 8.7 C 0 km/h
971 02-03-2008 02:15:05 8.6 C 4.38 g/m*3 8.6 C 0 km/h
972 02-03-2008 02:27:05 8.6 C 4.47 g/m*3 8.6 C 0 km/h
973 02-03-2008 02:39:05 8.7 C 4.41 g/m*3 8.7 C 0 km/h
974 02-03-2008 02:51:05 8.7 C 4.41 g/m*3 8.7 C 0 km/h
975 02-03-2008 03:03:05 8.7 C 4.5 g/m*3 8.7 C 0 km/h
Sensor: Nr:Datum:Temp:Abs-Feuchte:Windchill:Wind:
Aussen-T/F 976 02-03-2008 03:15:05 8.7 C 4.58 g/m*3 8.7 C 0 km/h
977 02-03-2008 03:27:05 8.6 C 4.64 g/m*3 8.6 C 0 km/h
978 02-03-2008 03:39:05 8.6 C 4.73 g/m*3 8.6 C 0 km/h
979 02-03-2008 03:51:05 8.5 C 4.87 g/m*3 8.5 C 0 km/h
980 02-03-2008 04:03:05 8.4 C 5.09 g/m*3 8.4 C 0 km/h
981 02-03-2008 04:15:05 8.3 C 5.23 g/m*3 8.3 C 0 km/h
982 02-03-2008 04:27:05 8.3 C 5.31 g/m*3 8.3 C 0 km/h
983 02-03-2008 04:39:05 8.4 C 5.51 g/m*3 8.4 C 0 km/h
984 02-03-2008 04:51:05 8.5 C 5.55 g/m*3 8.5 C 0 km/h
985 02-03-2008 05:03:05 8.5 C 5.64 g/m*3 8.5 C 0 km/h
986 02-03-2008 05:15:05 8.4 C 5.94 g/m*3 8.4 C 0 km/h
987 02-03-2008 05:27:06 8.4 C 6.19 g/m*3 8.4 C 0 km/h
988 02-03-2008 05:39:06 8.3 C 6.41 g/m*3 8.3 C 0 km/h
989 02-03-2008 05:51:06 8.2 C 6.53 g/m*3 8.2 C 0 km/h
990 02-03-2008 06:03:06 8.4 C 6.62 g/m*3 8.4 C 0 km/h
991 02-03-2008 06:15:06 8.5 C 6.74 g/m*3 8.5 C 0 km/h
992 02-03-2008 06:27:06 8.9 C 6.75 g/m*3 8.9 C 0 km/h
993 02-03-2008 06:39:06 9 C 6.61 g/m*3 9 C 0 km/h
994 02-03-2008 06:51:06 9.2 C 6.61 g/m*3 9.2 C 0 km/h
995 02-03-2008 07:03:06 9.2 C 6.61 g/m*3 9.2 C 0 km/h
996 02-03-2008 07:15:06 9 C 6.79 g/m*3 9 C 0 km/h
997 02-03-2008 07:27:06 9 C 7.05 g/m*3 9 C 0 km/h
998 02-03-2008 07:39:06 8.8 C 7.22 g/m*3 8.8 C 0 km/h
999 02-03-2008 07:51:06 8.8 C 7.4 g/m*3 8.8 C 0 km/h
1000 02-03-2008 08:03:06 8.8 C 7.49 g/m*3 8.8 C 0 km/h
Sensor: Nr:Datum:Temp:Abs-Feuchte:Windchill:Wind:
Aussen-T/F 1001 02-03-2008 08:15:06 8.8 C 7.57 g/m*3 8.8 C 0 km/h
1002 02-03-2008 08:27:06 9 C 7.49 g/m*3 9 C 0 km/h
1003 02-03-2008 08:39:06 9.2 C 7.5 g/m*3 9.2 C 0 km/h
1004 02-03-2008 08:51:02 9.9 C 7.56 g/m*3 9.9 C 0 km/h
1005 02-03-2008 09:03:02 10.4 C 7.04 g/m*3 10.4 C 0 km/h
1006 02-03-2008 09:15:02 10.9 C 6.76 g/m*3 10.9 C 0 km/h
1007 02-03-2008 09:27:02 11.3 C 6.43 g/m*3 11.3 C 0 km/h
1008 02-03-2008 09:39:02 11.4 C 6.57 g/m*3 11.4 C 0 km/h
1009 02-03-2008 09:51:02 11.5 C 6.51 g/m*3 11.5 C 0 km/h
1010 02-03-2008 10:03:02 11.2 C 6.69 g/m*3 11.2 C 0 km/h
1011 02-03-2008 10:15:02 11.6 C 6.65 g/m*3 11.6 C 0 km/h
1012 02-03-2008 10:27:02 12 C 6.29 g/m*3 12 C 0 km/h
1013 02-03-2008 10:39:02 12.3 C 5.86 g/m*3 12.3 C 0 km/h
1014 02-03-2008 10:51:02 12.4 C 5.79 g/m*3 12.4 C 0 km/h
1015 02-03-2008 11:03:01 12.7 C 5.68 g/m*3 12.7 C 0 km/h
1016 02-03-2008 11:15:01 13 C 5.44 g/m*3 13 C 0 km/h
1017 02-03-2008 11:27:01 13.2 C 5.28 g/m*3 13.2 C 0 km/h
1018 02-03-2008 11:39:02 13.2 C 4.94 g/m*3 13.2 C 0 km/h
1019 02-03-2008 11:51:03 13.6 C 4.71 g/m*3 13.6 C 0 km/h
1020 02-03-2008 12:03:03 13.5 C 4.8 g/m*3 13.5 C 0 km/h
1021 02-03-2008 12:15:02 13.6 C 4.94 g/m*3 13.6 C 0 km/h
1022 02-03-2008 12:27:02 13.8 C 4.77 g/m*3 13.8 C 0 km/h
1023 02-03-2008 12:39:03 13.8 C 4.77 g/m*3 13.8 C 0 km/h
1024 02-03-2008 12:51:02 13.4 C 5.11 g/m*3 13.4 C 0 km/h
1025 02-03-2008 13:03:02 13.1 C 5.25 g/m*3 13.1 C 0 km/h
Sensor: Nr:Datum:Temp:Abs-Feuchte:Windchill:Wind:
Aussen-T/F 1026 02-03-2008 13:15:02 13.6 C 5.3 g/m*3 13.6 C 0 km/h
1027 02-03-2008 13:27:02 14.3 C 4.91 g/m*3 14.3 C 0 km/h
1028 02-03-2008 13:39:02 14.1 C 4.98 g/m*3 14.1 C 0 km/h
1029 02-03-2008 13:51:02 14 C 5.07 g/m*3 14 C 0 km/h
1030 02-03-2008 14:03:01 13.9 C 5.04 g/m*3 13.9 C 0 km/h
1031 02-03-2008 14:15:02 14 C 4.95 g/m*3 14 C 0 km/h
1032 02-03-2008 14:27:02 14.1 C 4.85 g/m*3 14.1 C 0 km/h
1033 02-03-2008 14:39:02 14.1 C 4.61 g/m*3 14.1 C 0 km/h
1034 02-03-2008 14:51:02 14 C 4.7 g/m*3 14 C 0 km/h
1035 02-03-2008 15:03:02 13.7 C 4.86 g/m*3 13.7 C 0 km/h
1036 02-03-2008 15:15:01 13.7 C 4.86 g/m*3 13.7 C 0 km/h
1037 02-03-2008 15:27:01 13.9 C 4.8 g/m*3 13.9 C 0 km/h
1038 02-03-2008 15:39:01 14.4 C 4.57 g/m*3 14.4 C 0 km/h
1039 02-03-2008 15:51:01 14.3 C 4.55 g/m*3 14.3 C 0 km/h
1040 02-03-2008 16:03:02 14.2 C 4.52 g/m*3 14.2 C 0 km/h
1041 02-03-2008 16:15:02 13.9 C 4.8 g/m*3 13.9 C 0 km/h
1042 02-03-2008 16:27:02 13.8 C 4.77 g/m*3 13.8 C 0 km/h
1043 02-03-2008 16:39:01 13.5 C 4.68 g/m*3 13.5 C 0 km/h
1044 02-03-2008 16:51:02 13.5 C 4.68 g/m*3 13.5 C 0 km/h
1045 02-03-2008 17:03:01 13.4 C 4.65 g/m*3 13.4 C 0 km/h
1046 02-03-2008 17:15:02 13.4 C 4.65 g/m*3 13.4 C 0 km/h
1047 02-03-2008 17:27:02 13.4 C 4.65 g/m*3 13.4 C 0 km/h
1048 02-03-2008 17:39:02 13.2 C 4.94 g/m*3 13.2 C 0 km/h
1049 02-03-2008 17:51:02 13.1 C 4.91 g/m*3 13.1 C 0 km/h
1050 02-03-2008 18:03:02 13.1 C 4.68 g/m*3 13.1 C 0 km/h
Sensor: Nr:Datum:Temp:Abs-Feuchte:Windchill:Wind:
Aussen-T/F 1051 02-03-2008 18:15:02 13 C 4.65 g/m*3 13 C 0 km/h
1052 02-03-2008 18:27:02 12.8 C 4.59 g/m*3 12.8 C 0 km/h
1053 02-03-2008 18:39:03 12.9 C 4.51 g/m*3 12.9 C 0 km/h
1054 02-03-2008 18:51:02 12.8 C 4.48 g/m*3 12.8 C 0 km/h
1055 02-03-2008 19:03:02 12.8 C 4.59 g/m*3 12.8 C 0 km/h
1056 02-03-2008 19:15:02 12.7 C 4.68 g/m*3 12.7 C 0 km/h
1057 02-03-2008 19:27:02 12.5 C 4.84 g/m*3 12.5 C 0 km/h
1058 02-03-2008 19:39:01 12.5 C 4.62 g/m*3 12.5 C 0 km/h
1059 02-03-2008 19:51:02 12.4 C 4.59 g/m*3 12.4 C 0 km/h
1060 02-03-2008 20:03:01 12.3 C 4.34 g/m*3 12.3 C 0 km/h
1061 02-03-2008 20:15:02 12.1 C 4.29 g/m*3 12.1 C 0 km/h
1062 02-03-2008 20:27:02 12.1 C 4.18 g/m*3 12.1 C 0 km/h
1063 02-03-2008 20:39:02 12 C 4.26 g/m*3 12 C 0 km/h
1064 02-03-2008 20:51:02 12 C 4.26 g/m*3 12 C 0 km/h
1065 02-03-2008 21:03:01 11.9 C 4.34 g/m*3 11.9 C 0 km/h
1066 02-03-2008 21:15:02 11.8 C 4.32 g/m*3 11.8 C 0 km/h
1067 02-03-2008 21:27:02 11.9 C 4.34 g/m*3 11.9 C 0 km/h
1068 02-03-2008 21:39:01 11.7 C 4.39 g/m*3 11.7 C 0 km/h
1069 02-03-2008 21:51:02 11.8 C 4.42 g/m*3 11.8 C 0 km/h
1070 02-03-2008 22:03:02 11.7 C 4.5 g/m*3 11.7 C 0 km/h
1071 02-03-2008 22:16:02 11.6 C 4.68 g/m*3 11.6 C 0 km/h
1072 02-03-2008 22:28:02 11.4 C 4.72 g/m*3 11.4 C 0 km/h
1073 02-03-2008 22:40:02 11.4 C 4.82 g/m*3 11.4 C 0 km/h
1074 02-03-2008 22:52:02 11.2 C 5.07 g/m*3 11.2 C 0 km/h
1075 02-03-2008 23:04:02 10.5 C 5.72 g/m*3 10.5 C 0 km/h
Sensor: Nr:Datum:Temp:Abs-Feuchte:Windchill:Wind:
Aussen-T/F 1076 02-03-2008 23:16:02 10.5 C 6.01 g/m*3 10.5 C 0 km/h
1077 02-03-2008 23:28:02 10.4 C 6.07 g/m*3 10.4 C 0 km/h
1078 02-03-2008 23:40:02 10.4 C 6.07 g/m*3 10.4 C 0 km/h
1079 02-03-2008 23:52:02 10.5 C 6.11 g/m*3 10.5 C 0 km/h

Legende:
   Min
   Max


Maximal/Minimal-Werte vom 23.02.2008 - 02.03.2008

Sensor Min Max Avg
Temp
(Aussen-T/F)
1.6 °C
24-02-2008  07:32:04
15.9 °C
25-02-2008  16:09:02
9.1 °C
Abs-Feuchte
(Aussen-T/F)
2.82 g/m*3
01-03-2008  16:26:02
9.01 g/m*3
29-02-2008  14:01:02
5.51 g/m*3
Windchill
(Aussen-T/F)
1.6 C
24-02-2008  07:32:04
15.9 C
25-02-2008  16:09:02
9.09 C

Die Daten stammen von einer Davis Vantage Pro 2 Wetter-Station und werden unter Linux mit der Software wview2wettercgi und aufbereitet. Alle Angaben erfolgen ohne Gewähr für ihre Vollständigkeit oder Richtigkeit.
Kontakt: Rainer Krienke krienke@uni-koblenz.de . Meine Webseiten an der Uni Koblenz oder privat.
Version: $Revision: 0.78 $